Aviation Digital Data Service (ADDS)

Output produced by METARs form (1826 UTC 22 November 2017)
found at http://www.aviationweather.gov/adds/metars/
 
TAF CYXX 221738Z 2218/2318 06008KT P6SM SCT020 BKN050 OVC100 
     TEMPO 2218/2303 5SM -RA BR BKN020 OVC050 
     BECMG 2219/2221 17015KT 
     FM230300 21015KT P6SM -RA SCT007 OVC015 
     TEMPO 2303/2307 3SM -RA BR OVC007 
     FM230700 22012KT 3SM -RA BR OVC006 
     BECMG 2310/2312 19008KT 
     BECMG 2315/2317 24012G22KT RMK NXT FCST BY 230000Z
       
TAF CYLT 221732Z 2218/2306 20015KT P6SM BKN180 
     BECMG 2221/2223 VRB03KT RMK NXT FCST BY 230000Z
       
TAF CYAB 221338Z 2214/2221 11012G22KT P6SM OVC030 
     TEMPO 2214/2221 5SM -SN BLSN BKN020 
     BECMG 2214/2216 09015G30KT RMK NXT FCST BY 221900Z
       
TAF CYAH 221739Z 2218/2222 22012G22KT P6SM -SHSN SCT015 BKN030 
     TEMPO 2218/2222 3SM -SHSN BKN015 OVC030 
     PROB30 2218/2222 21/2SM -SHSN RMK FCST BASED ON AUTO OBS. NXT FCST WILL BE ISSUED AT 231145Z
       
TAF CYAM 221340Z 2214/2302 09005KT 6SM -SHSN SCT015 OVC030 
     TEMPO 2214/2220 11/2SM -SHSNGS SCT006 OVC015 
     PROB40 2214/2220 1/2SM SHSN VV006 
     FM222000 24010KT P6SM BKN030 
     TEMPO 2220/2224 3SM -SHSN BKN020 
     PROB30 2220/2224 21/2SM -SHSN 
     FM230000 24008KT P6SM BKN030 OVC140 RMK NXT FCST BY 222000Z
       
TAF AMD CYAS 221823Z 2218/2222 27015G25KT P6SM FEW008 SCT080 BKN230 
     TEMPO 2218/2222 4SM -SN SCT008 BKN015 OVC080 
     BECMG 2220/2222 24012G22KT RMK NXT FCST WILL BE ISSUED AT 231445Z
       
TAF CYAT 221344Z 2214/2220 27012G22KT P6SM -SN OVC025 
     TEMPO 2214/2220 4SM -SN OVC020 
     BECMG 2214/2216 27015G25KT RMK FCST BASED ON AUTO OBS. WND SENSORS INOP. NXT FCST WILL BE ISSUED AT 230945Z
       
TAF CYAW 221730Z 2218/2306 22010KT P6SM FEW030 SCT060 OVC250 
     FM221900 17010KT P6SM FEW015 BKN060 OVC200 
     FM222100 17012KT P6SM BKN025 OVC040 
     TEMPO 2221/2223 4SM -SHRA BR SCT008 OVC012 
     FM222300 16017G27KT 4SM -RA BR SCT008 OVC012 
     TEMPO 2223/2302 2SM RA BR OVC008 
     FM230200 16025G35KT 2SM RA BR OVC008 RMK NXT FCST BY 230000Z
       
TAF CYAY 221343Z 2214/2302 27012G22KT P6SM FEW025 
     BECMG 2214/2216 27010KT 
     FM230000 17005KT P6SM BKN025 
     TEMPO 2300/2302 BKN020 RMK FCST BASED ON AUTO OBS. NXT FCST BY 222000Z
       
TAF CYAZ 221738Z 2218/2301 14015G25KT 1SM SHRA BR OVC003 
     TEMPO 2218/2301 3SM -RA BR OVC006 RMK NXT FCST WILL BE ISSUED AT 231645Z
       
TAF AMD CYBB 221613Z 2216/2224 11030G40KT 1/4SM -SN +BLSN VV005 
     TEMPO 2216/2222 2SM BLSN SCT005 BKN010 
     FM222200 11020G30KT 6SM IC SCT020 
     TEMPO 2222/2224 21/2SM -SN BKN020 RMK NXT FCST BY 221900Z
       
TAF CYBC 221339Z 2214/2302 10008KT 3SM -SN BKN005 OVC015 
     TEMPO 2214/2216 P6SM -SNRA SCT005 OVC015 
     FM221600 VRB03KT 2SM -SNRA BR OVC003 
     TEMPO 2216/2220 6SM -RA BR OVC006 
     BECMG 2217/2219 23008KT 
     FM222000 27008KT 6SM -SNRA SCT006 OVC020 
     TEMPO 2220/2222 2SM -SN OVC006 
     FM222200 31010G20KT P6SM -SN SCT020 OVC050 
     TEMPO 2222/2301 4SM -SN OVC020 RMK FCST BASED ON AUTO OBS. NXT FCST BY 222000Z
       
TAF CYBG 221735Z 2218/2318 28012KT P6SM OVC025 
     TEMPO 2218/2221 5SM -SHSN BKN012 OVC030 
     FM222100 28012KT P6SM BKN030 
     TEMPO 2221/2315 P6SM -SHSN BKN020 
     BECMG 2308/2310 27008KT RMK NXT FCST BY 222100Z
       
TAF CYBK 221750Z 2218/2306 30030G40KT 1/4SM +BLSN VV006 
     FM222200 31025G35KT 1/4SM -SN +BLSN BKN012 
     TEMPO 2222/2306 3/4SM -SN BLSN BKN025 RMK NXT FCST BY 230000Z
       
TAF CYBL 221538Z 2216/2304 VRB03KT 1SM -SHRA BR VV002 
     TEMPO 2216/2220 3SM BR SCT002 OVC006 
     BECMG 2218/2220 12015G25KT 
     FM222000 12015G25KT 3SM -SHRA BR OVC004 
     TEMPO 2220/2301 P6SM NSW BKN008 OVC040 
     FM230100 12012G22KT P6SM FEW008 SCT040 
     TEMPO 2301/2304 5SM -SHRA BR FEW004 BKN040 
     BECMG 2301/2303 14005KT RMK NXT FCST BY 221900Z
       
TAF CYBN 221732Z 2218/2306 31010KT 3/4SM -SHSN VV008 
     TEMPO 2218/2219 3SM -SHSN OVC015 
     FM221900 30008KT 1SM -SHSN VV010 
     TEMPO 2219/2222 6SM -SHSN SCT010 BKN030 
     FM222200 30005KT P6SM SCT012 BKN030 
     TEMPO 2222/2302 2SM -SHSN BKN012 BKN030 
     FM230200 27005KT P6SM BKN030 BKN160 RMK FCST BASED ON AUTO OBS. NXT FCST BY 230000Z
       
TAF CYBR 221745Z 2218/2306 08005KT P6SM SCT030 BKN070 
     TEMPO 2218/2220 6SM -SN 
     FM222000 30007KT P6SM SCT030 BKN080 
     FM230000 28010KT P6SM SCT012 BKN030 RMK NXT FCST BY 230000Z
       
TAF CYBW 221738Z 2218/2305 25015G25KT P6SM BKN180 
     BECMG 2222/2224 20012KT 
     FM230200 15005KT P6SM SCT200 RMK FCST BASED ON AUTO OBS. NXT FCST BY 230000Z
       
TAF CYBX 221343Z 2214/2302 30005KT P6SM FEW020 
     BECMG 2218/2220 08008KT 
     FM222000 08005KT P6SM BKN015 
     TEMPO 2220/2302 BKN025 
     BECMG 2300/2302 08012KT RMK NXT FCST BY 222000Z
       
TAF AMD CYCB 221505Z 2215/2301 30028G38KT 1/4SM -SN +BLSN VV006 
     TEMPO 2215/2222 1SM -SN BLSN SCT006 OVC015 
     BECMG 2220/2222 30020G30KT 
     FM222200 30020G30KT 3/4SM -SN BLSN BKN008 OVC020 
     TEMPO 2222/2301 2SM -SN BLSN SCT008 OVC020 RMK NXT FCST BY 221900Z
       
TAF CYCD 221738Z 2218/2305 15008KT 3SM -RA BR BKN007 OVC020 
     TEMPO 2218/2223 P6SM -RA SCT008 OVC020 
     FM222300 15008KT P6SM BKN025 
     TEMPO 2223/2305 4SM -RA BR OVC015 RMK NXT FCST BY 230000Z
       
TAF AMD CYCG 221753Z 2217/2301 VRB03KT 2SM -RA BR OVC008 
     TEMPO 2217/2223 P6SM -RA OVC020 
     FM222300 18006KT P6SM -RA OVC030 
     TEMPO 2223/2301 4SM -RA BR OVC015 RMK NXT FCST BY 221900Z
       
TAF AMD CYCO 221409Z 2214/2301 26015KT P6SM IC FEW020 
     TEMPO 2214/2301 6SM -SN BKN020 RMK NXT FCST BY 221900Z
       
TAF CYCX 221730Z 2218/2306 VRB03KT P6SM OVC120 
     FM222000 22010KT P6SM SCT008 OVC015 
     TEMPO 2220/2222 3SM -RA BR OVC008 
     FM222200 32012G22KT 4SM -RA BR OVC008 
     TEMPO 2222/2306 2SM -RA BR OVC004 RMK NXT FCST BY 230000Z
       
TAF AMD CYCY 221753Z 2217/2301 VRB03KT WS005/16035KT 3/4SM -SN VV005 
     TEMPO 2217/2301 3SM -FZDZ BR OVC010 RMK NXT FCST BY 221900Z
       
TAF CYDA 221748Z 2218/2224 00000KT P6SM SKC 
     FM222200 VRB03KT P6SM SCT040 BKN100 
     TEMPO 2222/2224 4SM -SN BKN040 OVC100 RMK NXT FCST WILL BE ISSUED AT 231645Z
       
TAF CYDB 221748Z 2218/2306 30006KT P6SM VCFG SCT006 BKN040 
     TEMPO 2218/2219 5SM -SN BR BKN006 OVC040 
     FM221900 30005KT P6SM BKN050 
     TEMPO 2219/2224 P6SM -SN FEW012 OVC050 RMK NXT FCST BY 230000Z
       
TAF CYDF 221343Z 2214/2302 24008KT P6SM SCT015 BKN025 
     TEMPO 2214/2302 BKN015 RMK NXT FCST BY 222000Z
       
TAF CYDL 221748Z 2218/2303 VRB03KT 11/2SM -SN BKN020 OVC060 
     TEMPO 2218/2220 P6SM -SN SCT020 BKN060 
     FM222000 VRB03KT P6SM -SN SCT025 
     TEMPO 2220/2303 4SM -SN BKN025 
     PROB30 2223/2303 11/2SM -SN OVC020 RMK FCST BASED ON AUTO OBS. NXT FCST BY 230000Z
       
TAF CYDN 221745Z 2218/2306 VRB03KT P6SM SCT030 BKN090 
     TEMPO 2303/2306 BKN020 RMK FCST BASED ON AUTO OBS. NXT FCST BY 230000Z
       
TAF AMD CYDP 221425Z 2214/2224 22008KT 6SM -SN SCT020 OVC040 
     TEMPO 2214/2220 1SM -SHSN BKN020 OVC040 
     FM222000 20010KT P6SM BKN025 RMK NXT FCST BY 222000Z
       
TAF AMD CYDQ 221805Z 2218/2301 VRB03KT P6SM -FZRA -PL SCT060 OVC080 
     TEMPO 2218/2301 3SM -FZRA -PL BR BKN030 OVC060 RMK FCST BASED ON AUTO OBS. NXT FCST BY 221900Z
       
TAF CYED 221730Z 2218/2306 VRB03KT P6SM FEW025 BKN050 
     TEMPO 2218/2220 5SM -FZRA -PL BR OVC020 
     FM222000 VRB03KT P6SM BKN120 RMK FCST BASED ON AUTO OBS 222200-230600Z. NXT FCST BY 230000Z
       
TAF CYEG 221738Z 2218/2318 16005KT P6SM SCT080 BKN120 
     TEMPO 2218/2221 P6SM VCSH BKN080 OVC120 
     FM222100 15008KT P6SM FEW012 
     BECMG 2222/2224 VRB03KT 
     FM230300 15005KT P6SM SCT180 
     FM230600 16008KT P6SM BKN120 BKN220 
     BECMG 2307/2309 20012KT 
     FM231200 20012KT P6SM SCT180 
     BECMG 2314/2316 26015G25KT RMK NXT FCST BY 222100Z
       
TAF CYEK 221750Z 2218/2306 29020G30KT 6SM BLSN FEW020 
     TEMPO 2218/2306 2SM IC BLSN RMK NXT FCST BY 230000Z
       
TAF CYEN 221745Z 2218/2224 22006KT P6SM SCT050 
     TEMPO 2218/2224 BKN040 RMK NXT FCST WILL BE ISSUED AT 231145Z
       
TAF CYER 221344Z 2214/2220 28012G22KT P6SM FEW020 BKN130 
     TEMPO 2214/2218 4SM -SN OVC020 
     FM221800 26015G25KT P6SM -SN OVC025 
     TEMPO 2218/2220 2SM -SN OVC020 RMK FCST BASED ON AUTO OBS. NXT FCST WILL BE ISSUED AT 230945Z
       
TAF CYEV 221239Z 2213/2301 12005KT P6SM FEW040 BKN090 RMK NXT FCST BY 221900Z
       
TAF AMD CYFB 221810Z 2218/2318 14020G30KT 6SM -FZDZ BR SCT008 OVC015 
     TEMPO 2218/2223 1SM -SHSN BLSN VV008 
     FM222300 15015G25KT 2SM -SHSN BKN008 OVC015 
     TEMPO 2223/2306 P6SM -SN SCT015 BKN030 
     PROB30 2223/2306 2SM -FZDZ BR 
     FM230600 18008KT 6SM -SN BKN020 
     FM231200 13010KT 3SM -SN -SG BR SCT006 BKN015 RMK NXT FCST BY 230000Z
       
TAF CYFC 221738Z 2218/2306 VRB03KT P6SM FEW015 OVC090 
     TEMPO 2218/2220 4SM -SHRA BR OVC015 
     FM222000 VRB03KT 6SM RA BR SCT004 OVC020 
     TEMPO 2220/2223 2SM -RA BR OVC004 
     BECMG 2223/2301 34010KT 
     FM230400 31010G20KT 3SM -RA BR BKN006 OVC012 RMK FCST BASED ON AUTO OBS. NXT FCST BY 230000Z
       
TAF CYFS 221738Z 2218/2306 VRB03KT P6SM FEW090 SCT210 
     FM230400 10008KT P6SM SCT040 BKN080 
     TEMPO 2304/2306 5SM -SN BKN020 OVC040 RMK NXT FCST BY 230000Z
       
TAF CYGH 221738Z 2218/2224 07005KT P6SM SCT100 BKN200 
     BECMG 2219/2221 BKN040 OVC100 RMK NXT FCST WILL BE ISSUED AT 231515Z
       
TAF CYGK 221238Z 2213/2301 27007KT P6SM OVC050 
     TEMPO 2213/2215 6SM -SN OVC020 
     FM221500 35012KT P6SM SCT010 BKN030 
     TEMPO 2215/2218 BKN010 BKN030 
     FM221800 33012KT P6SM BKN030 
     FM230000 33008KT P6SM SCT030 RMK NXT FCST BY 222000Z
       
TAF CYGL 221738Z 2218/2318 22012G22KT 2SM -SHSN OVC015 
     TEMPO 2218/2220 6SM -SHSN OVC030 
     FM222000 23012G22KT 3SM -SHSN OVC015 
     TEMPO 2220/2303 6SM -SHSN OVC030 
     PROB30 2220/2303 2SM -SHSN 
     FM230300 20008KT 2SM -SHSN OVC015 
     FM230600 18008KT 1SM -SHSN OVC010 
     FM231000 18012G22KT 3/4SM -SHSN VV008 
     BECMG 2313/2315 25012G22KT RMK NXT FCST BY 230000Z
       
TAF CYGP 221339Z 2214/2302 VRB03KT P6SM FEW190 BKN240 
     FM221900 10005KT P6SM BKN180 
     FM222300 VRB03KT P6SM -RA OVC070 
     TEMPO 2223/2302 5SM -RA BR 
     PROB30 2223/2302 P6SM -FZRA RMK NXT FCST BY 222000Z
       
TAF AMD CYGQ 221541Z 2215/2302 22007KT P6SM OVC009 
     TEMPO 2215/2217 5SM -SN OVC015 
     BECMG 2215/2217 25010G20KT 
     FM221700 25010G20KT P6SM SCT015 BKN110 
     TEMPO 2217/2220 5SM -SN BKN015 OVC110 
     FM222000 23010KT P6SM BKN110 RMK NXT FCST BY 222000Z
       
TAF CYGR 221339Z 2214/2302 20010KT P6SM FEW020 
     TEMPO 2214/2219 BKN020 
     FM222200 18012KT P6SM BKN030 OVC160 
     FM230000 16015KT P6SM BKN030 OVC090 
     TEMPO 2300/2302 5SM -RA BR FEW007 OVC030 RMK NXT FCST BY 222000Z
       
TAF AMD CYGT 221525Z 2215/2221 13030G40KT 1/2SM -SN BLSN VV006 
     TEMPO 2215/2218 3SM -SN BLSN OVC012 
     FM221800 12025G35KT 1SM -SN BLSN VV006 
     TEMPO 2218/2221 4SM -SN BLSN OVC012 RMK NXT FCST BY 221900Z
       
TAF AMD CYGV 221808Z 2218/2302 07010KT 5SM BR OVC008 
     TEMPO 2218/2223 P6SM NSW FEW008 SCT080 OVC200 
     FM222300 06005KT P6SM -RA FEW007 OVC080 
     TEMPO 2223/2302 5SM -RA BR OVC007 RMK FCST BASED ON AUTO OBS. NXT FCST BY 222000Z
       
TAF CYGW 221738Z 2218/2306 22012G22KT 11/2SM -SHSN OVC015 
     TEMPO 2218/2222 6SM -SHSN OVC030 
     FM222200 22012G22KT 2SM -SHSN OVC015 
     TEMPO 2222/2304 P6SM -SHSN OVC030 
     PROB30 2222/2304 11/2SM -SHSN 
     FM230400 18012G22KT 11/2SM -SHSN OVC015 RMK FCST BASED ON AUTO OBS. NXT FCST BY 230000Z
       
TAF AMD CYGX 221653Z 2216/2301 23012G22KT 6SM -SN SCT008 OVC015 
     TEMPO 2216/2301 11/2SM -SN OVC008 RMK NXT FCST BY 221900Z
       
TAF AMD CYHA 221611Z 2216/2222 19018KT P6SM -SN BKN025 
     TEMPO 2216/2219 21/2SM -SHSN BKN015 
     FM221900 19015KT P6SM SCT030 
     TEMPO 2219/2222 5SM -SN BKN030 RMK NXT FCST WILL BE ISSUED AT 231445Z
       
TAF CYHD 221341Z 2214/2302 22010KT P6SM SCT010 BKN110 
     TEMPO 2214/2219 5SM -SN BKN010 OVC110 
     FM221900 22012KT P6SM -SN OVC025 
     TEMPO 2219/2302 3SM -SN OVC020 RMK FCST BASED ON AUTO OBS. NXT FCST BY 222000Z
       
TAF CYHI 221638Z 2217/2301 31012KT P6SM IC SCT003 
     TEMPO 2217/2301 1SM IC BR BKN003 RMK NXT FCST BY 221900Z
       
TAF CYHK 221750Z 2218/2306 10010KT P6SM -SN SCT015 OVC030 
     TEMPO 2218/2302 21/2SM -SHSN SCT005 OVC015 
     BECMG 2221/2223 14015G25KT 
     FM230200 09010KT 6SM -SN SCT008 BKN030 
     TEMPO 2302/2306 2SM -SN BR BKN008 RMK NXT FCST BY 230000Z
       
TAF CYHM 221740Z 2218/2318 30012G22KT P6SM BKN030 
     BECMG 2220/2222 31010KT 
     BECMG 2301/2303 23005KT 
     FM230800 22005KT P6SM SCT025 BKN110 
     BECMG 2313/2315 24012G22KT 
     FM231700 24015G25KT P6SM BKN050 RMK NXT FCST BY 230000Z
       
TAF CYHU 221741Z 2218/2318 27012KT P6SM BKN015 OVC060 
     TEMPO 2218/2220 SCT015 OVC050 
     FM222000 29015KT P6SM BKN030 
     TEMPO 2220/2224 BKN020 
     FM230500 30010KT P6SM SCT030 
     BECMG 2306/2308 26008KT 
     BECMG 2315/2317 23012KT RMK FCST BASED ON AUTO OBS. NXT FCST BY 230000Z
       
TAF CYHY 221738Z 2218/2306 VRB03KT P6SM FEW003 BKN006 
     TEMPO 2218/2220 BKN003 OVC060 
     FM222000 16005KT P6SM SCT008 
     TEMPO 2220/2306 BKN008 
     BECMG 2221/2223 12008KT RMK NXT FCST BY 230000Z
       
TAF CYHZ 221738Z 2218/2318 19010G20KT P6SM FEW015 SCT030 BKN240 
     FM222000 16012KT P6SM FEW006 BKN030 OVC150 
     TEMPO 2220/2223 3SM -RA BR BKN006 OVC030 
     FM222300 16015KT 6SM -RA BR OVC006 
     TEMPO 2223/2305 2SM SHRA BR OVC003 
     BECMG 2300/2302 16018G28KT 
     FM230500 14010G20KT 6SM -RA BR OVC006 
     TEMPO 2305/2308 2SM SHRA BR OVC003 
     FM230800 32020G30KT P6SM -SHRA SCT007 OVC012 
     TEMPO 2308/2310 4SM -SHRA BR OVC007 
     FM231300 30015G25KT P6SM BKN020 
     FM231600 29010G20KT P6SM SCT020 RMK NXT FCST BY 222100Z
       
TAF CYIK 221438Z 2215/2222 13030G40KT P6SM FEW020 SCT200 
     FM221900 14025G35KT P6SM FEW020 SCT080 
     TEMPO 2219/2222 2SM -SN BLSN BKN020 RMK NXT FCST WILL BE ISSUED AT 231445Z
       
TAF AMD CYIO 221718Z 2217/2301 VRB03KT WS010/12040KT P6SM BKN090 OVC100 
     TEMPO 2217/2301 06020G30KT 2SM -SN BLSN VV010 RMK NXT FCST BY 221900Z
       
TAF CYIV 221239Z 2213/2301 26010G20KT P6SM SCT015 BKN120 BKN220 
     TEMPO 2213/2301 P6SM -SN BKN015 BKN080 RMK NXT FCST BY 221900Z
       
TAF CYJT 221738Z 2218/2318 06005KT P6SM BKN025 
     TEMPO 2218/2224 BKN020 
     BECMG 2218/2220 14008KT 
     FM230000 10008KT P6SM BKN025 
     TEMPO 2300/2306 P6SM -RA BKN015 OVC025 
     BECMG 2301/2303 09012G22KT 
     FM230600 12015G25KT P6SM -RA OVC020 
     FM230900 13020G30KT P6SM -RA OVC020 
     BECMG 2312/2314 14030G45KT 
     BECMG 2316/2318 26030G40KT RMK NXT FCST BY 230000Z
       
TAF AMD CYKA 221731Z 2217/2301 10015KT P6SM FEW008 BKN030 OVC080 
     TEMPO 2217/2301 P6SM -RA RMK NXT FCST BY 221900Z
       
TAF AMD CYKF 221407Z 2214/2302 32010G20KT P6SM FEW007 SCT015 BKN030 
     TEMPO 2214/2216 P6SM -SHSN SCT007 BKN015 BKN040 
     FM221800 33010G20KT P6SM BKN030 
     TEMPO 2218/2302 BKN020 
     BECMG 2221/2223 32005KT RMK FCST BASED ON AUTO OBS. NXT FCST BY 222000Z
       
TAF CYKG 221438Z 2215/2222 VRB03KT 3/8SM SN VV008 
     TEMPO 2215/2219 3SM -SN OVC030 
     BECMG 2217/2219 23012KT 
     FM221900 22015KT P6SM SCT015 BKN150 
     TEMPO 2219/2222 5SM -SN BKN015 RMK NXT FCST WILL BE ISSUED AT 231445Z
       
TAF AMD CYKJ 221346Z 2213/2224 26008KT P6SM SCT012 OVC080 
     TEMPO 2213/2224 5SM -SN BR BKN012 OVC060 
     BECMG 2218/2220 30010KT RMK FCST BASED ON AUTO OBS. NXT FCST BY 221900Z
       
TAF AMD CYKL 221444Z 2214/2302 15010G20KT P6SM -SHSN SCT015 OVC040 
     TEMPO 2214/2216 11/2SM -SHSN OVC015 
     FM221600 23012G22KT P6SM BKN025 
     TEMPO 2216/2302 BKN020 RMK FCST BASED ON AUTO OBS. NXT FCST BY 222000Z
       
TAF CYKZ 221740Z 2218/2306 33015KT P6SM BKN030 
     TEMPO 2218/2219 5SM -SN BKN020 
     FM222300 31008KT P6SM SCT030 
     BECMG 2303/2305 24005KT RMK NXT FCST BY 230000Z
       
TAF CYLD 221238Z 2213/2301 28005KT P6SM OVC025 
     TEMPO 2213/2218 P6SM -SN OVC015 
     FM221800 24008KT P6SM BKN030 BKN160 
     FM222100 21008KT P6SM -SN BKN025 OVC120 
     PROB30 2221/2301 5SM -FZDZ BR RMK NXT FCST BY 222000Z
       
TAF CYLK 221638Z 2217/2301 VRB03KT P6SM -SG BKN020 
     TEMPO 2217/2301 P6SM NSW SCT020 RMK NXT FCST BY 221900Z
       
TAF CYLL 221738Z 2218/2306 26010KT P6SM SCT040 BKN280 
     TEMPO 2218/2220 P6SM -SN BKN040 BKN280 
     FM222000 13005KT P6SM SCT020 BKN080 
     TEMPO 2220/2306 BKN020 OVC060 RMK NXT FCST BY 230000Z
       
TAF CYLT 221732Z 2218/2306 20015KT P6SM BKN180 
     BECMG 2221/2223 VRB03KT RMK NXT FCST BY 230000Z
       
TAF AMD CYLW 221809Z 2218/2301 18006KT P6SM -RA OVC015 
     TEMPO 2218/2222 4SM -RA BR OVC008 
     FM222200 17006KT P6SM BKN030 
     TEMPO 2222/2301 4SM -RA BR SCT008 OVC020 RMK FCST BASED ON AUTO OBS. NXT FCST BY 221900Z
       
TAF CYMA 221748Z 2218/2306 VRB03KT P6SM SKC 
     FM230200 VRB03KT P6SM SCT040 
     TEMPO 2302/2306 P6SM -SN BKN040 RMK NXT FCST BY 230000Z
       
TAF CYMH 221343Z 2214/2302 26005KT P6SM SKC 
     FM230100 15005KT P6SM SCT020 
     TEMPO 2301/2302 BKN020 RMK FCST BASED ON AUTO OBS. NXT FCST BY 222000Z
       
TAF CYMJ 221730Z 2218/2306 VRB03KT P6SM FEW030 FEW090 RMK NXT FCST BY 230000Z
       
TAF CYMM 221249Z 2213/2301 23005KT P6SM SKC 
     BECMG 2217/2219 BKN020 
     FM221900 VRB02KT P6SM BKN020 
     TEMPO 2220/2301 SCT020 BKN120 
     BECMG 2220/2222 11006KT RMK FCST BASED ON AUTO OBS. NXT FCST BY 221900Z
       
TAF CYMO 221745Z 2218/2306 25010G20KT P6SM BKN030 
     TEMPO 2218/2306 5SM -SN BKN020 
     BECMG 2223/2301 22010KT RMK FCST BASED ON AUTO OBS. NXT FCST BY 230000Z
       
TAF CYMT 221739Z 2218/2301 27008KT P6SM -SN SCT015 OVC040 
     TEMPO 2218/2301 3SM -SN BKN015 OVC040 
     PROB30 2218/2301 21/2SM -SN RMK FCST BASED ON AUTO OBS. NXT FCST WILL BE ISSUED AT 231245Z
       
TAF CYMX 221741Z 2218/2318 31012KT P6SM BKN015 
     TEMPO 2218/2302 BKN025 
     BECMG 2300/2302 29005KT 
     FM230200 29005KT P6SM FEW020 
     TEMPO 2302/2305 BKN020 RMK NXT FCST BY 230000Z
       
TAF AMD CYNA 221802Z 2218/2302 13008KT 3SM BR OVC003 
     TEMPO 2218/2221 6SM BR OVC007 
     FM222100 15010KT 1SM BR OVC003 
     TEMPO 2221/2302 3SM BR FEW003 OVC005 RMK FCST BASED ON AUTO OBS. NXT FCST BY 222000Z
       
TAF CYND 221741Z 2218/2302 31008KT P6SM FEW020 BKN050 
     TEMPO 2218/2220 5SM -SN BKN020 
     FM222000 32012KT P6SM BKN020 
     TEMPO 2220/2301 BKN025 
     FM230100 32007KT P6SM BKN015 
     TEMPO 2301/2302 FEW015 RMK NXT FCST BY 230000Z
       
TAF CYNE 221239Z 2213/2301 29006KT P6SM BKN140 BKN220 
     FM221400 24010KT P6SM SCT012 BKN040 BKN100 
     TEMPO 2214/2301 4SM -SN BKN012 RMK FCST BASED ON AUTO OBS. NXT FCST BY 221900Z
       
TAF AMD CYOA 221630Z 2216/2224 30008KT P6SM SKC 
     TEMPO 2216/2218 BKN004 RMK NXT FCST BY 221900Z
       
TAF CYOC 221748Z 2218/2302 24010G20KT P6SM -SN SCT020 OVC030 
     TEMPO 2218/2222 5SM -SN BKN020 
     FM222200 26005KT P6SM -SN FEW020 BKN060 RMK NXT FCST BY 230000Z
       
TAF CYOD 221735Z 2218/2318 24005KT P6SM OVC012 
     TEMPO 2218/2223 BKN020 
     FM222300 15005KT P6SM OVC020 
     TEMPO 2223/2305 3SM -SN SCT006 OVC010 
     PROB30 2223/2305 2SM -SG BR 
     FM230500 11008KT P6SM OVC008 
     PROB30 2305/2311 2SM -FZDZ BR OVC005 
     FM231100 11010KT WS015/24040KT P6SM BKN006 
     FM231500 30008G18KT P6SM SCT008 RMK NXT FCST BY 222100Z
       
TAF AMD CYOJ 221803Z 2218/2301 VRB03KT 1/4SM FZFG VV002 
     TEMPO 2218/2224 3SM BR OVC006 
     FM230000 10006KT 2SM -SN BR OVC006 
     TEMPO 2300/2301 6SM -SN OVC012 RMK FCST BASED ON AUTO OBS. NXT FCST BY 221900Z
       
TAF CYOW 221741Z 2218/2318 31015KT P6SM BKN030 
     TEMPO 2218/2302 BKN020 
     BECMG 2221/2223 31012KT 
     FM230200 31010KT P6SM SCT030 
     BECMG 2305/2307 24005KT 
     BECMG 2315/2317 20012KT RMK NXT FCST BY 222100Z
       
TAF CYOY 221730Z 2218/2306 VRB03KT P6SM OVC015 
     TEMPO 2218/2220 3SM -SHRASN BR OVC004 
     FM222000 33010KT P6SM FEW006 SCT015 BKN030 
     TEMPO 2220/2306 BKN015 OVC030 RMK FCST BASED ON AUTO OBS. NXT FCST BY 230000Z
       
TAF CYPA 221239Z 2213/2301 28005KT P6SM SCT030 BKN080 
     TEMPO 2213/2215 P6SM -SN BKN030 
     FM221500 28005KT P6SM SCT012 SCT040 SCT120 RMK NXT FCST BY 221900Z
       
TAF CYPC 221538Z 2216/2224 VRB03KT P6SM SKC 
     BECMG 2220/2222 18008KT RMK NXT FCST BY 221900Z
       
TAF AMD CYPE 221510Z 2215/2301 VRB03KT P6SM SCT015 OVC090 
     TEMPO 2215/2218 5SM -FZRA BR BKN015 OVC060 
     FM221800 VRB03KT 6SM -SN OVC015 
     TEMPO 2218/2221 P6SM -SN SCT015 BKN025 
     FM222100 VRB03KT 6SM -FZRA -PL BR OVC012 
     TEMPO 2221/2301 P6SM -FZRA SCT012 OVC025 RMK NXT FCST BY 221900Z
       
TAF CYPG 221730Z 2218/2306 16008KT P6SM -SN OVC025 
     TEMPO 2218/2220 3SM -SN OVC020 
     FM222000 31005KT P6SM BKN030 
     TEMPO 2220/2224 SCT030 
     FM230000 29005KT P6SM FEW030 RMK NXT FCST BY 230000Z
       
TAF CYPH 221738Z 2218/2306 25015G25KT 6SM -SHSN OVC030 
     TEMPO 2218/2306 11/2SM -SHSN OVC020 
     BECMG 2304/2306 22010KT RMK FCST BASED ON AUTO OBS. NXT FCST BY 230000Z
       
TAF AMD CYPL 221535Z 2215/2301 23010KT 3SM -SN BKN009 OVC110 
     TEMPO 2215/2217 P6SM -SN SCT009 OVC100 
     FM221700 24010G20KT P6SM SCT015 BKN110 
     TEMPO 2217/2301 3SM -SN BKN015 OVC110 RMK NXT FCST BY 222000Z
       
TAF CYPQ 221339Z 2214/2302 30015KT P6SM SCT015 OVC040 
     TEMPO 2214/2216 3SM -SN FEW006 BKN015 OVC040 
     PROB40 2214/2215 1SM -SN 
     FM221600 32012KT P6SM BKN025 
     TEMPO 2216/2222 BKN020 
     FM222200 32007KT P6SM BKN020 
     TEMPO 2222/2302 FEW020 RMK FCST BASED ON AUTO OBS. NXT FCST BY 222000Z
       
TAF CYPR 221239Z 2213/2301 10006KT P6SM -RA SCT008 OVC025 
     TEMPO 2213/2218 3SM -RA BR BKN008 OVC025 
     FM221800 12010KT P6SM -RA OVC025 
     TEMPO 2218/2301 5SM -SHRA BR OVC015 RMK FCST BASED ON AUTO OBS. NXT FCST BY 221900Z
       
TAF CYPX 221750Z 2218/2306 14020G30KT 6SM -SN SCT015 BKN060 
     TEMPO 2218/2306 1SM -SHSN BLSN BKN015 
     BECMG 2221/2223 21018G28KT RMK FCST BASED ON AUTO OBS. NXT FCST BY 230000Z
       
TAF CYPY 221738Z 2218/2306 VRB03KT P6SM -SN OVC008 
     TEMPO 2218/2306 P6SM NSW SCT008 OVC015 
     BECMG 2302/2304 12008KT RMK FCST BASED ON AUTO OBS. NXT FCST BY 230000Z
       
TAF AMD CYQA 221742Z 2217/2301 32010KT P6SM OVC025 
     TEMPO 2217/2222 5SM -SN OVC020 
     FM222200 32008KT P6SM SCT030 
     TEMPO 2222/2301 P6SM -SN BKN030 RMK FCST BASED ON AUTO OBS. NXT FCST BY 222000Z
       
TAF CYQB 221738Z 2218/2318 24008KT 2SM BR BKN004 OVC008 
     TEMPO 2218/2220 6SM BR SCT008 OVC015 
     BECMG 2220/2221 P6SM NSW OVC025 
     FM222100 28008KT P6SM BKN030 
     TEMPO 2221/2224 BKN020 
     FM230000 30010KT P6SM SCT030 
     TEMPO 2300/2304 BKN030 
     BECMG 2310/2312 26010KT 
     FM231600 26012KT P6SM SCT120 RMK NXT FCST BY 230000Z
       
TAF AMD CYQD 221709Z 2217/2301 27012G22KT P6SM SCT015 BKN070 
     TEMPO 2217/2301 6SM -SN BKN015 RMK NXT FCST BY 221900Z
       
TAF CYQF 221738Z 2218/2306 VRB03KT 2SM BR BKN004 OVC100 
     TEMPO 2218/2222 6SM BR BKN008 OVC100 
     FM222200 17006KT P6SM SCT008 
     TEMPO 2222/2303 5SM BR BKN008 
     FM230300 18006KT 6SM HZ BR SKC 
     PROB30 2303/2306 3/4SM BR RMK NXT FCST BY 230000Z
       
TAF CYQG 221740Z 2218/2318 33012KT P6SM BKN040 
     BECMG 2221/2223 24005KT 
     FM222300 24005KT P6SM SCT040 
     TEMPO 2223/2302 BKN040 
     FM230800 24008KT P6SM FEW030 BKN080 
     BECMG 2312/2314 23012KT 
     BECMG 2316/2318 23010G20KT RMK NXT FCST BY 230000Z
       
TAF CYQH 221748Z 2218/2306 VRB03KT P6SM -SN OVC015 
     FM222000 VRB03KT 6SM -SN SCT008 OVC025 
     TEMPO 2220/2306 2SM -SN BKN008 OVC025 RMK NXT FCST BY 230000Z
       
TAF CYQI 221738Z 2218/2306 18012KT P6SM -SHRA SCT025 BKN050 OVC080 
     TEMPO 2218/2222 5SM -SHRA BR OVC020 
     FM222200 16012KT 6SM -RA BR SCT006 OVC020 
     TEMPO 2222/2224 3SM -RA BR OVC006 
     FM230000 VRB03KT 3SM SHRA BR OVC006 
     TEMPO 2300/2304 1SM -RA BR OVC002 
     FM230400 33010G20KT 3SM -RA BR OVC005 
     TEMPO 2304/2306 6SM -RA BR SCT005 OVC012 
     BECMG 2305/2306 33020G30KT RMK NXT FCST BY 230000Z
       
TAF CYQK 221341Z 2214/2302 22008KT P6SM FEW004 SCT020 OVC240 
     TEMPO 2214/2216 5SM -SN BKN004 OVC240 
     FM221600 20012G22KT P6SM -SN OVC025 
     TEMPO 2216/2302 2SM -SN OVC015 RMK NXT FCST BY 222000Z
       
TAF CYQL 221738Z 2218/2306 24030G40KT P6SM FEW060 SCT140 BKN270 
     BECMG 2222/2224 24020G30KT 
     FM230200 20015G25KT P6SM SCT040 
     BECMG 2304/2306 21008KT RMK NXT FCST BY 230000Z
       
TAF CYQM 221738Z 2218/2318 19008G18KT P6SM SCT080 BKN180 
     FM221900 14010KT P6SM BKN025 OVC140 
     TEMPO 2219/2301 5SM -SHRA BR OVC015 
     PROB30 2223/2301 2SM SHRA BR OVC006 
     FM230100 14010KT 3SM SHRA BR OVC006 
     TEMPO 2301/2305 6SM -SHRA BR SCT006 OVC012 
     FM230500 32012KT 3SM SHRA BR OVC005 
     TEMPO 2305/2309 6SM -RA BR OVC010 
     BECMG 2306/2308 30012G22KT 
     FM230900 30015G25KT 2SM -SNRA OVC005 
     FM231100 29018G28KT P6SM OVC015 
     FM231400 27012G22KT P6SM SCT020 RMK NXT FCST BY 230000Z
       
TAF AMD CYQQ 221743Z 2218/2318 16020G30KT P6SM -RA SCT003 OVC008 
     TEMPO 2218/2224 3SM -RA BR BKN003 OVC005 
     FM230000 15015G25KT P6SM FEW005 SCT015 BKN030 
     FM230300 15010G20KT P6SM SCT030 
     TEMPO 2303/2307 BKN030 
     FM231200 16007KT P6SM FEW015 BKN100 
     TEMPO 2312/2318 P6SM -SHRA SCT015 BKN070 RMK NXT FCST BY 230000Z
       
TAF CYQR 221745Z 2218/2318 VRB03KT P6SM SCT008 BKN080 
     TEMPO 2218/2220 BKN008 
     FM222000 29007KT P6SM SCT030 
     FM230200 14006KT P6SM SCT006 SCT050 
     FM230500 09008KT 6SM BR SCT004 
     TEMPO 2305/2318 4SM BR BKN004 RMK NXT FCST BY 230000Z
       
TAF CYQT 221341Z 2214/2302 26008KT P6SM SCT025 BKN220 
     TEMPO 2214/2224 BKN025 
     FM230000 23008KT P6SM BKN025 
     TEMPO 2300/2302 5SM -SN OVC020 RMK NXT FCST BY 222000Z
       
TAF AMD CYQU 221653Z 2216/2301 VRB03KT P6SM VCSH SCT012 OVC100 
     TEMPO 2216/2220 5SM -FZRA BR SCT008 OVC012 
     FM222000 03005KT 5SM -FZRA BR OVC008 
     TEMPO 2220/2223 P6SM -FZRA -PL SCT008 OVC020 
     FM222300 03004KT P6SM SCT008 OVC020 
     TEMPO 2223/2301 5SM BR BKN008 RMK NXT FCST BY 221900Z
       
TAF CYQV 221745Z 2218/2306 14008KT P6SM SCT040 BKN080 RMK FCST BASED ON AUTO OBS. NXT FCST BY 230000Z
       
TAF CYQW 221745Z 2218/2306 VRB03KT P6SM SCT015 BKN040 RMK FCST BASED ON AUTO OBS. NXT FCST BY 230000Z
       
TAF CYQX 221738Z 2218/2318 32010KT P6SM SKC 
     FM222100 34005KT P6SM SCT025 
     BECMG 2222/2224 12005KT 
     BECMG 2304/2306 15010G20KT 
     FM230600 16010G20KT P6SM SCT006 BKN140 
     FM230800 15012G22KT P6SM SCT005 BKN140 
     TEMPO 2308/2311 2SM -DZ BR OVC005 
     FM231100 15015G25KT 6SM BR OVC010 
     TEMPO 2311/2314 1SM -RA BR OVC005 
     FM231400 13018G28KT P6SM OVC008 
     FM231700 14020G35KT 5SM -DZ BR OVC008 RMK NXT FCST BY 230000Z
       
TAF CYQY 221738Z 2218/2306 23012KT P6SM FEW015 
     TEMPO 2218/2222 BKN015 
     FM222200 17010KT P6SM FEW008 SCT060 BKN170 
     TEMPO 2222/2224 BKN008 
     FM230000 16012KT 6SM BR FEW006 BKN060 OVC170 
     TEMPO 2300/2306 2SM -RA BR BKN006 OVC030 
     BECMG 2304/2306 16018KT RMK NXT FCST BY 230000Z
       
TAF CYQZ 221138Z 2212/2224 VRB03KT 1/2SM FZFG VV003 
     FM221800 VRB03KT 1SM BR BKN005 
     TEMPO 2218/2220 4SM -RASN BR SCT005 BKN080 
     FM222000 VRB03KT P6SM SCT008 BKN025 
     TEMPO 2220/2224 BKN008 RMK FCST BASED ON AUTO OBS. NXT FCST BY 221900Z
       
TAF CYRA 221638Z 2217/2301 VRB03KT P6SM SKC 
     BECMG 2223/2301 14005KT RMK NXT FCST BY 221900Z
       
TAF CYRB 212339Z 2200/2224 11030G45KT 1/4SM -SN +BLSN VV002 
     FM220900 11045G55KT 0SM SN +BLSN VV000 
     FM222100 11035G45KT 1/4SM -SN +BLSN BKN008 RMK NXT FCST BY 220600Z
       
TAF AMD CYRJ 221704Z 2217/2301 32008G18KT P6SM SCT020 BKN050 
     TEMPO 2217/2301 6SM -SN BKN020 OVC040 
     BECMG 2222/2224 31012KT RMK NXT FCST BY 222000Z
       
TAF CYRL 221341Z 2214/2302 25008KT P6SM -SN FEW006 OVC030 
     TEMPO 2214/2215 4SM -SN OVC006 
     FM221500 23010KT P6SM -SN SCT015 OVC030 
     TEMPO 2215/2302 5SM -SN OVC015 RMK NXT FCST BY 222000Z
       
TAF AMD CYRQ 221746Z 2217/2302 32005KT 3SM -RA BR BKN004 OVC015 
     TEMPO 2217/2219 6SM BR SCT015 BKN025 
     FM221900 32010KT P6SM SCT020 BKN040 
     FM222300 32010KT P6SM FEW020 SCT040 RMK FCST BASED ON AUTO OBS. NXT FCST BY 222000Z
       
TAF CYRT 221750Z 2218/2306 32025G35KT 0SM -SN +BLSN VV012 
     FM222200 31025G35KT 1/4SM -SN +BLSN BKN012 
     TEMPO 2222/2306 3/4SM -SN BLSN BKN025 RMK NXT FCST BY 230000Z
       
TAF CYSB 221340Z 2214/2302 32008KT P6SM OVC025 
     TEMPO 2214/2220 P6SM -SN OVC020 
     BECMG 2218/2220 22008KT 
     FM222000 22008KT P6SM -SN BKN020 OVC140 
     TEMPO 2220/2302 P6SM NSW SCT020 BKN140 RMK NXT FCST BY 222000Z
       
TAF CYSC 221738Z 2218/2303 26005KT P6SM -RA SCT007 OVC012 
     TEMPO 2218/2220 4SM -RA BR OVC007 
     FM222000 28008KT 5SM -RASN OVC006 
     TEMPO 2220/2222 P6SM -SN OVC010 
     FM222200 28012KT P6SM OVC012 
     TEMPO 2222/2303 3SM -SHSN 
     BECMG 2223/2301 30010G20KT RMK FCST BASED ON AUTO OBS. NXT FCST BY 230000Z
       
TAF CYSF 221738Z 2218/2306 27008KT P6SM OVC040 
     TEMPO 2218/2306 P6SM -SN OVC020 
     BECMG 2303/2305 VRB03KT RMK FCST BASED ON AUTO OBS. NXT FCST BY 230000Z
       
TAF CYSJ 221738Z 2218/2306 19012G22KT 3SM -RA BR OVC009 
     TEMPO 2218/2222 6SM -RA BR SCT009 OVC060 
     FM222200 17012G22KT 3SM RA BR OVC006 
     TEMPO 2222/2303 1SM -RA BR OVC003 
     BECMG 2301/2303 VRB03KT 
     FM230300 34010G20KT 3SM -RA BR OVC005 
     TEMPO 2303/2306 6SM -RA BR SCT005 OVC015 
     BECMG 2304/2306 34015G25KT RMK NXT FCST BY 230000Z
       
TAF CYSM 221738Z 2218/2306 VRB03KT P6SM -SN OVC012 
     BECMG 2303/2305 12005KT RMK NXT FCST BY 230000Z
       
TAF CYSN 221339Z 2214/2302 31015KT P6SM FEW015 OVC040 
     TEMPO 2214/2219 BKN015 
     FM221900 31012KT P6SM BKN030 RMK NXT FCST BY 222000Z
       
TAF CYSP 221439Z 2215/2222 VRB03KT P6SM BKN050 OVC110 
     TEMPO 2216/2222 5SM -SN BKN020 OVC050 
     BECMG 2218/2220 25010G20KT RMK NXT FCST BY 222000Z
       
TAF CYSY 221538Z 2216/2224 30005KT 2SM -SN OVC005 
     TEMPO 2216/2224 6SM -SN OVC010 
     BECMG 2217/2219 02005KT RMK NXT FCST BY 221900Z
       
TAF CYTE 221239Z 2213/2301 13025G35KT 3SM -SN BLSN OVC012 
     TEMPO 2213/2217 6SM BLSN SCT012 BKN025 
     FM221700 12018G28KT 2SM -SN BLSN OVC010 
     TEMPO 2217/2301 6SM -SN BLSN SCT015 OVC040 RMK FCST BASED ON AUTO OBS. NXT FCST BY 221900Z
       
TAF CYTH 221239Z 2213/2301 26006KT P6SM SCT040 BKN080 
     TEMPO 2213/2214 P6SM -SN BKN040 
     FM221400 24008G18KT P6SM -SN SCT012 OVC025 
     TEMPO 2214/2220 4SM -SN OVC012 
     FM222000 28010G20KT P6SM BKN025 
     TEMPO 2220/2301 P6SM -SN BKN015 RMK NXT FCST BY 221900Z
       
TAF CYTL 221341Z 2214/2302 27012G22KT P6SM FEW015 SCT110 BKN130 
     TEMPO 2214/2224 5SM -SN BKN020 OVC110 
     BECMG 2218/2220 24010KT 
     FM230000 24012KT P6SM -SN BKN025 OVC110 
     TEMPO 2300/2302 2SM -SN OVC020 RMK FCST BASED ON AUTO OBS. NXT FCST BY 222000Z
       
TAF AMD CYTQ 221708Z 2217/2222 24012KT P6SM FEW010 SCT070 
     TEMPO 2219/2221 BKN015 OVC030 
     BECMG 2219/2221 22012G22KT RMK NXT FCST WILL BE ISSUED AT 231445Z
       
TAF CYTR 221732Z 2218/2318 32012KT P6SM BKN030 
     TEMPO 2218/2220 P6SM -SHSNRA -SHGS BKN020 
     FM230000 32012KT P6SM SCT030 
     BECMG 2300/2302 VRB03KT 
     BECMG 2308/2310 BKN120 
     FM231500 24012G22KT P6SM SCT030 BKN100 RMK NXT FCST BY 230000Z
       
TAF CYTS 221339Z 2214/2302 27005KT P6SM -SN OVC025 
     TEMPO 2214/2220 5SM -SN OVC020 
     BECMG 2217/2219 23008KT 
     FM222000 23008KT P6SM BKN030 OVC120 
     TEMPO 2220/2302 P6SM -SN BKN020 OVC030 RMK NXT FCST BY 222000Z
       
TAF CYTZ 221339Z 2214/2314 30010G20KT P6SM BKN040 
     TEMPO 2214/2215 P6SM -SHRASN OVC020 
     BECMG 2223/2301 30005KT 
     FM230300 29005KT P6SM FEW025 BKN230 
     FM230800 21005KT P6SM BKN025 OVC120 RMK FCST BASED ON AUTO OBS. NXT FCST BY 222000Z
       
TAF CYUB 221538Z 2216/2304 12012KT P6SM BKN080 RMK NXT FCST BY 221900Z
       
TAF CYUL 221741Z 2218/2318 28012KT P6SM BKN015 OVC050 
     TEMPO 2218/2220 SCT015 OVC050 
     FM222000 28015KT P6SM BKN030 
     TEMPO 2220/2304 BKN020 
     FM230400 28010KT P6SM SCT020 
     TEMPO 2304/2306 BKN020 
     BECMG 2314/2316 24012KT RMK NXT FCST BY 222100Z
       
TAF CYUT 221438Z 2215/2223 15020G30KT 6SM -SN BKN025 
     TEMPO 2215/2223 1SM -SN BLSN BKN012 RMK NXT FCST BY 221900Z
       
TAF AMD CYUX 221711Z 2217/2301 14022G32KT P6SM SCT015 BKN025 
     TEMPO 2217/2301 21/2SM -FZDZ -SN BLSN BR BKN015 OVC025 
     BECMG 2222/2224 09015G25KT RMK NXT FCST BY 221900Z
       
TAF CYUY 221738Z 2218/2306 27008KT P6SM -SN BKN025 
     TEMPO 2218/2222 21/2SM -SN BKN020 OVC025 
     PROB30 2218/2222 11/2SM -SN 
     FM222200 24008KT P6SM FEW020 BKN050 
     TEMPO 2222/2302 5SM -SN BKN020 OVC050 
     FM230200 21008KT P6SM SCT030 BKN120 
     TEMPO 2302/2306 P6SM -SN BKN030 OVC120 RMK NXT FCST BY 230000Z
       
TAF AMD CYVC 221612Z 2216/2301 27010KT P6SM SCT015 BKN060 
     TEMPO 2216/2301 5SM -SN BKN012 RMK NXT FCST BY 221900Z
       
TAF AMD CYVM 221715Z 2217/2301 19010KT WS005/15035KT P6SM FEW005 OVC180 RMK NXT FCST BY 221900Z
       
TAF CYVO 221738Z 2218/2306 30005KT P6SM -SN OVC030 
     TEMPO 2218/2223 21/2SM -SN OVC020 
     PROB30 2218/2223 11/2SM -SN 
     FM222300 26005KT P6SM FEW020 BKN050 
     TEMPO 2223/2303 5SM -SN BKN020 OVC050 
     FM230300 20005KT P6SM SCT030 BKN120 
     TEMPO 2303/2306 P6SM -SN BKN030 OVC120 RMK NXT FCST BY 230000Z
       
TAF CYVP 221738Z 2218/2306 25010G20KT P6SM FEW015 SCT050 
     TEMPO 2220/2223 BKN015 OVC050 
     BECMG 2220/2222 22010KT 
     FM230300 20010KT P6SM FEW020 BKN030 OVC070 RMK NXT FCST BY 230000Z
       
TAF CYVQ 221738Z 2218/2306 12005KT P6SM SCT120 RMK NXT FCST BY 230000Z
       
TAF CYVR 221738Z 2218/2324 10012KT P6SM -RA SCT012 BKN030 OVC050 
     TEMPO 2218/2224 3SM -SHRA BR SCT006 BKN012 OVC030 
     BECMG 2218/2220 13012KT 
     FM230000 16010KT P6SM -RA SCT015 BKN050 
     TEMPO 2300/2306 5SM -RA BR BKN015 OVC040 
     FM230600 16008KT 4SM -RA BR SCT006 OVC012 
     FM231800 25008KT P6SM -SHRA SCT020 BKN060 RMK NXT FCST BY 222100Z
       
TAF CYVT 221338Z 2214/2302 25005KT P6SM SKC 
     TEMPO 2214/2217 VRB03KT 11/2SM IC BR 
     FM221900 22005KT P6SM SCT020 BKN120 
     TEMPO 2219/2302 BKN015 RMK NXT FCST BY 221900Z
       
TAF CYVV 221339Z 2214/2224 32008G18KT P6SM BKN020 
     TEMPO 2214/2218 SCT020 
     FM221800 32008KT P6SM BKN030 
     TEMPO 2218/2224 BKN020 RMK NXT FCST BY 222000Z
       
TAF CYWA 221732Z 2218/2306 31012KT P6SM SCT040 
     TEMPO 2218/2223 FEW008 BKN040 
     FM222300 34005KT P6SM FEW040 BKN140 RMK FCST BASED ON AUTO OBS 230300Z-230600Z. NXT FCST BY 230000Z
       
TAF CYWE 221338Z 2214/2302 25005KT P6SM FEW050 
     BECMG 2222/2224 14005KT RMK FCST BASED ON AUTO OBS. NXT FCST BY 221900Z
       
TAF CYWG 221745Z 2218/2318 18015KT P6SM -SN BKN040 
     TEMPO 2218/2220 2SM -SHSN OVC020 
     FM222000 20010KT P6SM SCT020 BKN040 
     TEMPO 2220/2224 BKN020 
     FM230000 22005KT P6SM SCT012 
     TEMPO 2300/2310 BKN012 
     FM231000 14005KT P6SM SCT008 BKN050 
     TEMPO 2312/2318 4SM -SN BKN008 OVC030 RMK NXT FCST BY 230000Z
       
TAF AMD CYWH 221809Z 2218/2305 VRB03KT P6SM SCT015 BKN060 
     TEMPO 2218/2222 4SM -RA BR SCT003 BKN015 OVC040 
     FM222200 24006KT P6SM SCT020 BKN050 
     TEMPO 2222/2305 5SM -RA BR SCT008 OVC020 RMK NXT FCST BY 230000Z
       
TAF CYWJ 221738Z 2218/2224 VRB03KT P6SM SCT003 
     TEMPO 2218/2224 BKN003 
     BECMG 2220/2222 12008KT RMK NXT FCST WILL BE ISSUED AT 231515Z
       
TAF CYWK 221343Z 2214/2302 18008KT P6SM SCT008 OVC025 
     TEMPO 2214/2302 3SM -SHSN OVC008 
     BECMG 2214/2216 24010KT RMK NXT FCST BY 222000Z
       
TAF CYWL 221239Z 2213/2301 12010KT WS005/16020KT P6SM FEW090 
     FM221800 14012KT P6SM SCT100 BKN200 RMK NXT FCST BY 221900Z
       
TAF CYXC 221239Z 2213/2301 VRB03KT P6SM FEW015 BKN050 OVC100 
     TEMPO 2213/2218 5SM -RA BR BKN015 OVC050 
     PROB30 2213/2218 1/2SM FG BKN003 
     FM221800 18008KT P6SM SCT020 BKN040 
     TEMPO 2218/2301 P6SM -SHRA BKN020 OVC040 RMK NXT FCST BY 221900Z
       
TAF CYXE 221745Z 2218/2318 28005KT P6SM SCT030 BKN050 
     BECMG 2220/2222 18006KT 
     FM230200 16008KT P6SM SCT008 BKN060 BKN220 
     FM230400 10008KT P6SM SCT006 BKN060 BKN220 
     TEMPO 2304/2318 4SM BR BKN006 RMK NXT FCST BY 230000Z
       
TAF CYXH 221738Z 2218/2306 27005KT P6SM FEW100 SCT220 
     BECMG 2219/2221 22012KT 
     FM230000 22015G25KT P6SM SKC 
     BECMG 2304/2306 22020G30KT RMK NXT FCST BY 230000Z
       
TAF AMD CYXJ 221805Z 2218/2301 13007KT 21/2SM -FZRA -PL BR FEW008 BKN020 OVC060 
     TEMPO 2218/2301 6SM -FZRA -PL SCT020 OVC060 RMK NXT FCST BY 221900Z
       
TAF CYXL 221341Z 2214/2302 25010KT P6SM FEW009 BKN110 
     TEMPO 2214/2216 5SM -SN BKN009 OVC110 
     FM221600 22010KT P6SM OVC030 
     TEMPO 2216/2302 5SM -SN OVC020 RMK NXT FCST BY 222000Z
       
TAF AMD CYXP 221511Z 2215/2223 07020G35KT P6SM BKN030 
     TEMPO 2215/2223 P6SM -RA OVC020 RMK NXT FCST BY 221900Z
       
TAF CYXR 221739Z 2218/2301 28008KT P6SM OVC030 
     TEMPO 2218/2301 5SM -SN OVC020 
     BECMG 2222/2224 22008KT RMK FCST BASED ON AUTO OBS. NXT FCST WILL BE ISSUED AT 231245Z
       
TAF AMD CYXS 221637Z 2216/2301 02005KT P6SM SCT008 BKN090 
     TEMPO 2216/2218 3SM BR BKN008 
     FM221800 20008KT P6SM BKN100 
     BECMG 2222/2224 33010KT RMK FCST BASED ON AUTO OBS. NXT FCST BY 221900Z
       
TAF AMD CYXT 221636Z 2216/2301 02010G20KT 3SM -RA BR SCT005 BKN012 OVC040 
     TEMPO 2216/2219 5SM -FZRA BR FEW005 SCT012 OVC040 
     FM221900 02015KT 6SM -RA BR FEW005 BKN015 OVC030 
     TEMPO 2219/2224 3SM -RASN BR SCT015 OVC025 
     PROB30 2219/2224 2SM -FZRA BR BKN008 
     FM230000 36012G22KT 1SM -SN VV010 
     TEMPO 2300/2301 3SM -RASN BR OVC020 RMK NXT FCST BY 221900Z
       
TAF CYXU 221740Z 2218/2318 35010KT P6SM -SHSN OVC030 
     TEMPO 2218/2224 3SM -SHSN OVC020 
     PROB30 2218/2223 1SM -SHSN VV008 
     FM230100 25005KT P6SM BKN030 
     FM230500 24005KT P6SM FEW040 BKN180 
     FM231000 23007KT P6SM SCT020 BKN100 
     BECMG 2312/2314 24012KT 
     BECMG 2316/2318 24012G22KT RMK NXT FCST BY 230000Z
       
TAF CYXX 221738Z 2218/2318 06008KT P6SM SCT020 BKN050 OVC100 
     TEMPO 2218/2303 5SM -RA BR BKN020 OVC050 
     BECMG 2219/2221 17015KT 
     FM230300 21015KT P6SM -RA SCT007 OVC015 
     TEMPO 2303/2307 3SM -RA BR OVC007 
     FM230700 22012KT 3SM -RA BR OVC006 
     BECMG 2310/2312 19008KT 
     BECMG 2315/2317 24012G22KT RMK NXT FCST BY 230000Z
       
TAF CYXY 221748Z 2218/2306 VRB03KT 21/2SM -SN BR BKN005 OVC012 
     TEMPO 2218/2222 6SM BR SCT005 OVC012 
     FM222200 33007KT 5SM -SN BR BKN015 
     TEMPO 2222/2306 P6SM NSW SCT015 RMK NXT FCST BY 230000Z
       
TAF CYXZ 221238Z 2213/2224 VRB03KT P6SM FEW040 
     TEMPO 2213/2217 BKN040 
     BECMG 2214/2216 20008KT 
     FM221700 20008KT P6SM BKN025 
     TEMPO 2217/2224 2SM -SHSN BKN020 
     BECMG 2218/2220 24010G20KT RMK NXT FCST BY 222000Z
       
TAF CYYB 221340Z 2214/2302 35008KT P6SM OVC025 
     TEMPO 2214/2222 P6SM -SN OVC020 
     BECMG 2216/2218 30008KT 
     FM222200 26008KT P6SM -SN BKN020 OVC140 
     TEMPO 2222/2302 P6SM NSW SCT020 BKN140 RMK NXT FCST BY 222000Z
       
TAF CYYC 221738Z 2218/2318 20012KT P6SM FEW015 SCT180 
     BECMG 2219/2221 16005KT 
     FM230200 15005KT P6SM SCT120 
     PROB30 2302/2309 3/4SM BR 
     FM230900 24020G30KT P6SM SCT220 
     BECMG 2313/2315 22015G25KT RMK NXT FCST BY 222100Z
       
TAF AMD CYYD 221547Z 2215/2302 12004KT 4SM -FZRA -SN BKN015 OVC030 
     TEMPO 2215/2222 6SM -SN SCT015 OVC030 
     FM222200 15005KT 6SM -SN SCT015 OVC030 
     TEMPO 2222/2302 21/2SM -SN BKN015 OVC030 
     PROB30 2222/2302 2SM -FZRA BR BKN008 RMK NXT FCST BY 221900Z
       
TAF CYYE 221239Z 2213/2301 VRB03KT P6SM SCT240 
     FM222100 33005KT P6SM SCT040 BKN120 
     TEMPO 2221/2301 4SM -SN BKN040 OVC120 RMK NXT FCST BY 221900Z
       
TAF AMD CYYF 221609Z 2216/2301 18012G22KT P6SM -RA SCT020 OVC040 
     TEMPO 2216/2222 5SM -RA BR SCT010 OVC020 
     FM222200 18015KT P6SM -RA SCT025 OVC040 
     TEMPO 2222/2301 5SM -RA BR SCT015 OVC025 RMK NXT FCST BY 221900Z
       
TAF CYYG 221738Z 2218/2306 18012KT P6SM FEW015 BKN240 
     FM222000 16012KT P6SM FEW030 BKN150 
     TEMPO 2220/2301 P6SM -RA BKN030 OVC130 
     FM230100 15012G22KT P6SM -RA SCT012 OVC060 
     TEMPO 2301/2304 6SM -RA BR BKN012 OVC050 
     FM230400 16018G28KT 3SM RA BR OVC008 
     TEMPO 2304/2306 6SM -RA BR OVC012 
     BECMG 2305/2306 VRB03KT RMK NXT FCST BY 230000Z
       
TAF AMD CYYH 221810Z 2218/2306 09018G28KT P6SM VCSH SCT015 BKN060 
     TEMPO 2218/2306 1SM -SHSN BLSN SCT008 BKN015 RMK NXT FCST BY 230000Z
       
TAF AMD CYYJ 221814Z 2218/2318 12005KT 5SM BR BKN004 OVC010 
     TEMPO 2218/2221 P6SM -RA SCT004 BKN012 OVC030 
     FM222100 15010KT P6SM -RA SCT012 BKN040 
     TEMPO 2221/2303 4SM -RA BR BKN012 OVC030 
     FM230300 19008KT P6SM SCT020 BKN050 
     TEMPO 2303/2312 5SM -RA BR BKN020 OVC050 
     FM231200 16008KT 4SM -RA BR SCT007 OVC015 RMK NXT FCST BY 230000Z
       
TAF AMD CYYL 221242Z 2213/2301 24008KT P6SM -SN SCT010 BKN040 
     TEMPO 2213/2217 4SM -SN OVC008 
     BECMG 2215/2217 30012G22KT 
     FM221700 30012G22KT P6SM BKN015 
     TEMPO 2217/2301 BKN025 RMK FCST BASED ON AUTO OBS. NXT FCST BY 221900Z
       
TAF CYYN 221745Z 2218/2306 28015KT P6SM BKN080 RMK FCST BASED ON AUTO OBS. NXT FCST BY 230000Z
       
TAF CYYQ 221745Z 2218/2318 30012KT P6SM -SN SCT012 OVC025 
     TEMPO 2218/2304 2SM -SN OVC012 
     FM230400 31020G30KT P6SM BKN012 
     TEMPO 2304/2308 4SM -SN RMK NXT FCST BY 230000Z
       
TAF CYYR 221735Z 2218/2318 VRB03KT P6SM SCT020 BKN050 
     TEMPO 2218/2222 BKN015 OVC030 
     FM222200 VRB03KT P6SM OVC025 
     TEMPO 2222/2302 5SM -SN OVC012 
     PROB30 2222/2302 5SM -FZDZ BR 
     FM230200 05005KT 6SM -SN OVC015 
     TEMPO 2302/2304 2SM -SN OVC009 
     FM230400 05005KT 11/2SM -SN OVC010 
     FM230600 04005KT 1SM -SN OVC012 
     TEMPO 2306/2308 21/2SM -SN -PL 
     FM230800 04008KT 1/2SM SN VV005 
     TEMPO 2308/2312 1SM -SN -PL OVC012 
     FM231200 01010KT 3/4SM -SN BKN006 OVC020 
     TEMPO 2312/2318 11/2SM -SN RMK NXT FCST BY 230000Z
       
TAF CYYT 221738Z 2218/2318 30015G25KT P6SM FEW120 
     BECMG 2218/2220 31010KT 
     FM230600 18005KT P6SM BKN240 
     FM230800 15010KT 6SM BR SCT008 
     FM231200 15015G25KT P6SM OVC120 
     FM231500 15020G30KT P6SM SCT008 OVC100 
     TEMPO 2315/2318 3SM -RA BR BKN008 OVC060 
     BECMG 2316/2318 16030G40KT RMK NXT FCST BY 230000Z
       
TAF CYYU 221339Z 2214/2302 25008KT P6SM SCT020 OVC050 
     TEMPO 2214/2220 5SM -SN BKN020 OVC050 
     FM222000 23008KT P6SM BKN030 OVC120 
     TEMPO 2220/2302 P6SM -SN BKN020 OVC030 RMK NXT FCST BY 222000Z
       
TAF AMD CYYY 221811Z 2218/2302 VRB03KT 6SM -RA BR SCT005 OVC025 
     TEMPO 2218/2220 3SM -RASN BR OVC005 
     FM222000 26008KT 2SM -SNRA BR OVC005 
     TEMPO 2220/2223 4SM -SNRA OVC010 
     FM222300 31010G20KT 11/2SM -SN OVC007 
     TEMPO 2223/2301 6SM -SN SCT007 OVC020 
     FM230100 32010G20KT P6SM -SN OVC030 
     TEMPO 2301/2302 3SM -SN OVC020 RMK NXT FCST BY 222000Z
       
TAF CYYZ 221740Z 2218/2324 31015KT P6SM SCT030 
     TEMPO 2218/2222 BKN030 
     FM222200 31010KT P6SM SCT030 
     BECMG 2303/2305 26005KT 
     FM230800 23007KT P6SM SCT020 BKN150 
     BECMG 2314/2316 22010G20KT 
     FM231900 24012G22KT P6SM BKN025 OVC040 RMK NXT FCST BY 222100Z
       
TAF CYZE 221340Z 2214/2223 34008KT P6SM BKN030 
     TEMPO 2214/2220 BKN020 
     FM222000 26008KT P6SM BKN030 BKN120 
     TEMPO 2220/2223 4SM -SHSN BKN020 OVC030 
     PROB30 2220/2223 2SM -SHSN RMK FCST BASED ON AUTO OBS. NXT FCST BY 222000Z
       
TAF CYZF 221738Z 2218/2318 VRB03KT P6SM FEW015 
     FM230400 VRB03KT P6SM -SN BKN015 
     BECMG 2309/2311 10012KT 
     FM231400 10012KT P6SM SCT015 BKN120 RMK NXT FCST BY 230000Z
       
TAF CYZG 221438Z 2215/2222 18030G40KT P6SM SCT050 BKN120 
     TEMPO 2215/2219 3SM -SN BLSN FEW012 BKN050 
     FM221900 17025G35KT P6SM SCT050 BKN100 
     TEMPO 2219/2222 4SM -SN BLSN FEW012 BKN050 RMK NXT FCST WILL BE ISSUED AT 231445Z
       
TAF CYZH 221249Z 2213/2301 11004KT P6SM -SN SCT012 OVC090 
     TEMPO 2213/2219 11/2SM -SHSN VV012 
     FM222000 11005KT P6SM SCT012 OVC025 
     TEMPO 2220/2222 5SM -SN BKN012 
     FM222200 11005KT 5SM -FZRA BR OVC012 
     TEMPO 2222/2224 P6SM -FZRA SCT012 OVC025 RMK FCST BASED ON AUTO OBS. NXT FCST BY 221900Z
       
TAF AMD CYZP 221252Z 2213/2301 VRB03KT P6SM -RA SCT005 OVC025 
     TEMPO 2213/2218 3/4SM -SHRA BR BKN003 OVC020 
     FM221800 18008KT P6SM SCT015 BKN050 
     TEMPO 2218/2301 3SM -SHRA BR BKN015 OVC050 RMK FCST BASED ON AUTO OBS. NXT FCST BY 221900Z
       
TAF CYZR 221339Z 2214/2302 32012G22KT P6SM BKN040 
     BECMG 2214/2216 32012KT 
     FM222300 29008KT P6SM SCT030 
     BECMG 2300/2302 22005KT RMK FCST BASED ON AUTO OBS. NXT FCST BY 222000Z
       
TAF AMD CYZS 221509Z 2215/2301 13020G30KT 6SM -SN SCT005 OVC015 
     TEMPO 2215/2301 1SM -FZDZ -SN BR VV005 RMK NXT FCST BY 221900Z
       
TAF CYZT 221239Z 2213/2301 12015G25KT P6SM -RA SCT020 BKN040 
     TEMPO 2213/2301 5SM -SHRA BR BKN020 OVC040 RMK NXT FCST BY 221900Z
       
TAF CYZU 221411Z 2214/2223 23005KT P6SM SCT030 OVC050 
     TEMPO 2214/2220 5SM -SN BR BKN030 OVC040 
     FM222000 VRB03KT P6SM BKN060 RMK NXT FCST BY 221900Z
       
TAF CYZV 221738Z 2218/2318 05008KT 3SM -SN SCT006 OVC015 
     TEMPO 2218/2301 11/2SM -SN BR OVC006 
     FM230100 VRB03KT 3SM -SN OVC010 
     TEMPO 2301/2303 2SM -SN 
     FM230300 34006KT 6SM -SN OVC025 
     TEMPO 2303/2305 3SM -SN OVC020 
     FM230500 35012KT P6SM FEW020 SCT040 
     FM231000 34010G20KT P6SM FEW020 
     BECMG 2316/2318 31010G20KT RMK NXT FCST BY 230000Z
       
TAF CYZX 221735Z 2218/2318 15008KT P6SM SCT030 OVC100 
     TEMPO 2218/2220 P6SM -RA BKN020 OVC080 
     FM222000 16008KT P6SM OVC025 
     TEMPO 2220/2224 3SM -RA BR SCT006 OVC012 
     FM230000 15010KT 3SM -RA BR BKN008 OVC015 
     FM230400 18005KT 2SM RA BR SCT003 OVC008 
     BECMG 2304/2306 30010KT 
     FM230700 32015G25KT 6SM -SHRA BR OVC008 
     FM231100 30012G22KT P6SM BKN012 OVC030 
     FM231600 27008KT P6SM BKN030 RMK NXT FCST BY 230000Z
       
TAF CYZY 221438Z 2215/2303 VRB03KT 2SM -FZRA -SN OVC015 
     TEMPO 2215/2303 6SM -SN BR BKN015 OVC030 RMK FCST BASED ON AUTO OBS. NXT FCST BY 221900Z
       
TAF CYEK 221750Z 2218/2306 29020G30KT 6SM BLSN FEW020 
     TEMPO 2218/2306 2SM IC BLSN RMK NXT FCST BY 230000Z
       
TAF CYBG 221735Z 2218/2318 28012KT P6SM OVC025 
     TEMPO 2218/2221 5SM -SHSN BKN012 OVC030 
     FM222100 28012KT P6SM BKN030 
     TEMPO 2221/2315 P6SM -SHSN BKN020 
     BECMG 2308/2310 27008KT RMK NXT FCST BY 222100Z
       
TAF CYBC 221339Z 2214/2302 10008KT 3SM -SN BKN005 OVC015 
     TEMPO 2214/2216 P6SM -SNRA SCT005 OVC015 
     FM221600 VRB03KT 2SM -SNRA BR OVC003 
     TEMPO 2216/2220 6SM -RA BR OVC006 
     BECMG 2217/2219 23008KT 
     FM222000 27008KT 6SM -SNRA SCT006 OVC020 
     TEMPO 2220/2222 2SM -SN OVC006 
     FM222200 31010G20KT P6SM -SN SCT020 OVC050 
     TEMPO 2222/2301 4SM -SN OVC020 RMK FCST BASED ON AUTO OBS. NXT FCST BY 222000Z
       
TAF CYBK 221750Z 2218/2306 30030G40KT 1/4SM +BLSN VV006 
     FM222200 31025G35KT 1/4SM -SN +BLSN BKN012 
     TEMPO 2222/2306 3/4SM -SN BLSN BKN025 RMK NXT FCST BY 230000Z
       
TAF CZBF 221339Z 2214/2302 VRB03KT P6SM FEW220 SCT240 
     FM222000 VRB03KT P6SM FEW008 BKN080 OVC120 
     TEMPO 2220/2224 3SM -RA BR FEW004 BKN008 OVC080 
     FM230000 VRB03KT 3SM RA BR OVC008 
     TEMPO 2300/2302 1SM -SNRA BR OVC004 
     PROB30 2301/2302 1SM -SNPL -FZRA BR OVC002 RMK NXT FCST BY 222000Z
       
TAF CYBR 221745Z 2218/2306 08005KT P6SM SCT030 BKN070 
     TEMPO 2218/2220 6SM -SN 
     FM222000 30007KT P6SM SCT030 BKN080 
     FM230000 28010KT P6SM SCT012 BKN030 RMK NXT FCST BY 230000Z
       
TAF CYVT 221338Z 2214/2302 25005KT P6SM SKC 
     TEMPO 2214/2217 VRB03KT 11/2SM IC BR 
     FM221900 22005KT P6SM SCT020 BKN120 
     TEMPO 2219/2302 BKN015 RMK NXT FCST BY 221900Z
       
TAF CYDB 221748Z 2218/2306 30006KT P6SM VCFG SCT006 BKN040 
     TEMPO 2218/2219 5SM -SN BR BKN006 OVC040 
     FM221900 30005KT P6SM BKN050 
     TEMPO 2219/2224 P6SM -SN FEW012 OVC050 RMK NXT FCST BY 230000Z
       
TAF CYYC 221738Z 2218/2318 20012KT P6SM FEW015 SCT180 
     BECMG 2219/2221 16005KT 
     FM230200 15005KT P6SM SCT120 
     PROB30 2302/2309 3/4SM BR 
     FM230900 24020G30KT P6SM SCT220 
     BECMG 2313/2315 22015G25KT RMK NXT FCST BY 222100Z
       
TAF CYBW 221738Z 2218/2305 25015G25KT P6SM BKN180 
     BECMG 2222/2224 20012KT 
     FM230200 15005KT P6SM SCT200 RMK FCST BASED ON AUTO OBS. NXT FCST BY 230000Z
       
TAF AMD CYCB 221505Z 2215/2301 30028G38KT 1/4SM -SN +BLSN VV006 
     TEMPO 2215/2222 1SM -SN BLSN SCT006 OVC015 
     BECMG 2220/2222 30020G30KT 
     FM222200 30020G30KT 3/4SM -SN BLSN BKN008 OVC020 
     TEMPO 2222/2301 2SM -SN BLSN SCT008 OVC020 RMK NXT FCST BY 221900Z
       
TAF CYBL 221538Z 2216/2304 VRB03KT 1SM -SHRA BR VV002 
     TEMPO 2216/2220 3SM BR SCT002 OVC006 
     BECMG 2218/2220 12015G25KT 
     FM222000 12015G25KT 3SM -SHRA BR OVC004 
     TEMPO 2220/2301 P6SM NSW BKN008 OVC040 
     FM230100 12012G22KT P6SM FEW008 SCT040 
     TEMPO 2301/2304 5SM -SHRA BR FEW004 BKN040 
     BECMG 2301/2303 14005KT RMK NXT FCST BY 221900Z
       
TAF CYTE 221239Z 2213/2301 13025G35KT 3SM -SN BLSN OVC012 
     TEMPO 2213/2217 6SM BLSN SCT012 BKN025 
     FM221700 12018G28KT 2SM -SN BLSN OVC010 
     TEMPO 2217/2301 6SM -SN BLSN SCT015 OVC040 RMK FCST BASED ON AUTO OBS. NXT FCST BY 221900Z
       
TAF AMD CYCG 221753Z 2217/2301 VRB03KT 2SM -RA BR OVC008 
     TEMPO 2217/2223 P6SM -RA OVC020 
     FM222300 18006KT P6SM -RA OVC030 
     TEMPO 2223/2301 4SM -RA BR OVC015 RMK NXT FCST BY 221900Z
       
TAF CYLD 221238Z 2213/2301 28005KT P6SM OVC025 
     TEMPO 2213/2218 P6SM -SN OVC015 
     FM221800 24008KT P6SM BKN030 BKN160 
     FM222100 21008KT P6SM -SN BKN025 OVC120 
     PROB30 2221/2301 5SM -FZDZ BR RMK NXT FCST BY 222000Z
       
TAF CYYG 221738Z 2218/2306 18012KT P6SM FEW015 BKN240 
     FM222000 16012KT P6SM FEW030 BKN150 
     TEMPO 2220/2301 P6SM -RA BKN030 OVC130 
     FM230100 15012G22KT P6SM -RA SCT012 OVC060 
     TEMPO 2301/2304 6SM -RA BR BKN012 OVC050 
     FM230400 16018G28KT 3SM RA BR OVC008 
     TEMPO 2304/2306 6SM -RA BR OVC012 
     BECMG 2305/2306 VRB03KT RMK NXT FCST BY 230000Z
       
TAF CYMT 221739Z 2218/2301 27008KT P6SM -SN SCT015 OVC040 
     TEMPO 2218/2301 3SM -SN BKN015 OVC040 
     PROB30 2218/2301 21/2SM -SN RMK FCST BASED ON AUTO OBS. NXT FCST WILL BE ISSUED AT 231245Z
       
TAF CYYQ 221745Z 2218/2318 30012KT P6SM -SN SCT012 OVC025 
     TEMPO 2218/2304 2SM -SN OVC012 
     FM230400 31020G30KT P6SM BKN012 
     TEMPO 2304/2308 4SM -SN RMK NXT FCST BY 230000Z
       
TAF CZUM 221343Z 2214/2302 10008KT P6SM SCT020 OVC040 
     TEMPO 2214/2220 3SM -SHSN OVC020 
     PROB30 2214/2220 11/2SM -SN OVC008 
     FM222000 19005KT 6SM -SN OVC025 
     TEMPO 2220/2302 2SM -SN OVC012 RMK FCST BASED ON AUTO OBS. NXT FCST BY 222000Z
       
TAF AMD CYCY 221753Z 2217/2301 VRB03KT WS005/16035KT 3/4SM -SN VV005 
     TEMPO 2217/2301 3SM -FZDZ BR OVC010 RMK NXT FCST BY 221900Z
       
TAF CYOD 221735Z 2218/2318 24005KT P6SM OVC012 
     TEMPO 2218/2223 BKN020 
     FM222300 15005KT P6SM OVC020 
     TEMPO 2223/2305 3SM -SN SCT006 OVC010 
     PROB30 2223/2305 2SM -SG BR 
     FM230500 11008KT P6SM OVC008 
     PROB30 2305/2311 2SM -FZDZ BR OVC005 
     FM231100 11010KT WS015/24040KT P6SM BKN006 
     FM231500 30008G18KT P6SM SCT008 RMK NXT FCST BY 222100Z
       
TAF AMD CYQQ 221743Z 2218/2318 16020G30KT P6SM -RA SCT003 OVC008 
     TEMPO 2218/2224 3SM -RA BR BKN003 OVC005 
     FM230000 15015G25KT P6SM FEW005 SCT015 BKN030 
     FM230300 15010G20KT P6SM SCT030 
     TEMPO 2303/2307 BKN030 
     FM231200 16007KT P6SM FEW015 BKN100 
     TEMPO 2312/2318 P6SM -SHRA SCT015 BKN070 RMK NXT FCST BY 230000Z
       
TAF AMD CYZS 221509Z 2215/2301 13020G30KT 6SM -SN SCT005 OVC015 
     TEMPO 2215/2301 1SM -FZDZ -SN BR VV005 RMK NXT FCST BY 221900Z
       
TAF CYXC 221239Z 2213/2301 VRB03KT P6SM FEW015 BKN050 OVC100 
     TEMPO 2213/2218 5SM -RA BR BKN015 OVC050 
     PROB30 2213/2218 1/2SM FG BKN003 
     FM221800 18008KT P6SM SCT020 BKN040 
     TEMPO 2218/2301 P6SM -SHRA BKN020 OVC040 RMK NXT FCST BY 221900Z
       
TAF CYDN 221745Z 2218/2306 VRB03KT P6SM SCT030 BKN090 
     TEMPO 2303/2306 BKN020 RMK FCST BASED ON AUTO OBS. NXT FCST BY 230000Z
       
TAF CYDA 221748Z 2218/2224 00000KT P6SM SKC 
     FM222200 VRB03KT P6SM SCT040 BKN100 
     TEMPO 2222/2224 4SM -SN BKN040 OVC100 RMK NXT FCST WILL BE ISSUED AT 231645Z
       
TAF AMD CYDQ 221805Z 2218/2301 VRB03KT P6SM -FZRA -PL SCT060 OVC080 
     TEMPO 2218/2301 3SM -FZRA -PL BR BKN030 OVC060 RMK FCST BASED ON AUTO OBS. NXT FCST BY 221900Z
       
TAF CYDL 221748Z 2218/2303 VRB03KT 11/2SM -SN BKN020 OVC060 
     TEMPO 2218/2220 P6SM -SN SCT020 BKN060 
     FM222000 VRB03KT P6SM -SN SCT025 
     TEMPO 2220/2303 4SM -SN BKN025 
     PROB30 2223/2303 11/2SM -SN OVC020 RMK FCST BASED ON AUTO OBS. NXT FCST BY 230000Z
       
TAF CYDF 221343Z 2214/2302 24008KT P6SM SCT015 BKN025 
     TEMPO 2214/2302 BKN015 RMK NXT FCST BY 222000Z
       
TAF CYWJ 221738Z 2218/2224 VRB03KT P6SM SCT003 
     TEMPO 2218/2224 BKN003 
     BECMG 2220/2222 12008KT RMK NXT FCST WILL BE ISSUED AT 231515Z
       
TAF CYHD 221341Z 2214/2302 22010KT P6SM SCT010 BKN110 
     TEMPO 2214/2219 5SM -SN BKN010 OVC110 
     FM221900 22012KT P6SM -SN OVC025 
     TEMPO 2219/2302 3SM -SN OVC020 RMK FCST BASED ON AUTO OBS. NXT FCST BY 222000Z
       
TAF CYXR 221739Z 2218/2301 28008KT P6SM OVC030 
     TEMPO 2218/2301 5SM -SN OVC020 
     BECMG 2222/2224 22008KT RMK FCST BASED ON AUTO OBS. NXT FCST WILL BE ISSUED AT 231245Z
       
TAF CYEG 221738Z 2218/2318 16005KT P6SM SCT080 BKN120 
     TEMPO 2218/2221 P6SM VCSH BKN080 OVC120 
     FM222100 15008KT P6SM FEW012 
     BECMG 2222/2224 VRB03KT 
     FM230300 15005KT P6SM SCT180 
     FM230600 16008KT P6SM BKN120 BKN220 
     BECMG 2307/2309 20012KT 
     FM231200 20012KT P6SM SCT180 
     BECMG 2314/2316 26015G25KT RMK NXT FCST BY 222100Z
       
TAF CZVL 221738Z 2218/2306 16005KT P6SM SCT080 BKN120 
     TEMPO 2218/2221 P6SM VCSH BKN080 OVC120 
     FM222100 15008KT P6SM FEW012 
     BECMG 2222/2224 VRB03KT 
     FM230300 15005KT P6SM SCT180 RMK FCST BASED ON AUTO OBS. NXT FCST BY 230000Z
       
TAF CYEN 221745Z 2218/2224 22006KT P6SM SCT050 
     TEMPO 2218/2224 BKN040 RMK NXT FCST WILL BE ISSUED AT 231145Z
       
TAF CZFA 221748Z 2218/2223 VRB03KT P6SM -SN BKN015 OVC025 
     TEMPO 2218/2223 P6SM NSW SCT015 OVC025 RMK NXT FCST WILL BE ISSUED AT 231645Z
       
TAF CYPY 221738Z 2218/2306 VRB03KT P6SM -SN OVC008 
     TEMPO 2218/2306 P6SM NSW SCT008 OVC015 
     BECMG 2302/2304 12008KT RMK FCST BASED ON AUTO OBS. NXT FCST BY 230000Z
       
TAF CYGH 221738Z 2218/2224 07005KT P6SM SCT100 BKN200 
     BECMG 2219/2221 BKN040 OVC100 RMK NXT FCST WILL BE ISSUED AT 231515Z
       
TAF CYMM 221249Z 2213/2301 23005KT P6SM SKC 
     BECMG 2217/2219 BKN020 
     FM221900 VRB02KT P6SM BKN020 
     TEMPO 2220/2301 SCT020 BKN120 
     BECMG 2220/2222 11006KT RMK FCST BASED ON AUTO OBS. NXT FCST BY 221900Z
       
TAF CZFM 221538Z 2216/2224 14005KT P6SM BKN060 
     FM221900 24008KT P6SM SCT120 BKN220 
     BECMG 2219/2221 24008KT WS004/26025KT RMK NXT FCST BY 221900Z
       
TAF CYYE 221239Z 2213/2301 VRB03KT P6SM SCT240 
     FM222100 33005KT P6SM SCT040 BKN120 
     TEMPO 2221/2301 4SM -SN BKN040 OVC120 RMK NXT FCST BY 221900Z
       
TAF CYFS 221738Z 2218/2306 VRB03KT P6SM FEW090 SCT210 
     FM230400 10008KT P6SM SCT040 BKN080 
     TEMPO 2304/2306 5SM -SN BKN020 OVC040 RMK NXT FCST BY 230000Z
       
TAF CYSM 221738Z 2218/2306 VRB03KT P6SM -SN OVC012 
     BECMG 2303/2305 12005KT RMK NXT FCST BY 230000Z
       
TAF AMD CYXJ 221805Z 2218/2301 13007KT 21/2SM -FZRA -PL BR FEW008 BKN020 OVC060 
     TEMPO 2218/2301 6SM -FZRA -PL SCT020 OVC060 RMK NXT FCST BY 221900Z
       
TAF CYFC 221738Z 2218/2306 VRB03KT P6SM FEW015 OVC090 
     TEMPO 2218/2220 4SM -SHRA BR OVC015 
     FM222000 VRB03KT 6SM RA BR SCT004 OVC020 
     TEMPO 2220/2223 2SM -RA BR OVC004 
     BECMG 2223/2301 34010KT 
     FM230400 31010G20KT 3SM -RA BR BKN006 OVC012 RMK FCST BASED ON AUTO OBS. NXT FCST BY 230000Z
       
TAF CYQX 221738Z 2218/2318 32010KT P6SM SKC 
     FM222100 34005KT P6SM SCT025 
     BECMG 2222/2224 12005KT 
     BECMG 2304/2306 15010G20KT 
     FM230600 16010G20KT P6SM SCT006 BKN140 
     FM230800 15012G22KT P6SM SCT005 BKN140 
     TEMPO 2308/2311 2SM -DZ BR OVC005 
     FM231100 15015G25KT 6SM BR OVC010 
     TEMPO 2311/2314 1SM -RA BR OVC005 
     FM231400 13018G28KT P6SM OVC008 
     FM231700 14020G35KT 5SM -DZ BR OVC008 RMK NXT FCST BY 230000Z
       
TAF CYGP 221339Z 2214/2302 VRB03KT P6SM FEW190 BKN240 
     FM221900 10005KT P6SM BKN180 
     FM222300 VRB03KT P6SM -RA OVC070 
     TEMPO 2223/2302 5SM -RA BR 
     PROB30 2223/2302 P6SM -FZRA RMK NXT FCST BY 222000Z
       
TAF CYND 221741Z 2218/2302 31008KT P6SM FEW020 BKN050 
     TEMPO 2218/2220 5SM -SN BKN020 
     FM222000 32012KT P6SM BKN020 
     TEMPO 2220/2301 BKN025 
     FM230100 32007KT P6SM BKN015 
     TEMPO 2301/2302 FEW015 RMK NXT FCST BY 230000Z
       
TAF AMD CYGQ 221541Z 2215/2302 22007KT P6SM OVC009 
     TEMPO 2215/2217 5SM -SN OVC015 
     BECMG 2215/2217 25010G20KT 
     FM221700 25010G20KT P6SM SCT015 BKN110 
     TEMPO 2217/2220 5SM -SN BKN015 OVC110 
     FM222000 23010KT P6SM BKN110 RMK NXT FCST BY 222000Z
       
TAF CYHK 221750Z 2218/2306 10010KT P6SM -SN SCT015 OVC030 
     TEMPO 2218/2302 21/2SM -SHSN SCT005 OVC015 
     BECMG 2221/2223 14015G25KT 
     FM230200 09010KT 6SM -SN SCT008 BKN030 
     TEMPO 2302/2306 2SM -SN BR BKN008 RMK NXT FCST BY 230000Z
       
TAF CYYR 221735Z 2218/2318 VRB03KT P6SM SCT020 BKN050 
     TEMPO 2218/2222 BKN015 OVC030 
     FM222200 VRB03KT P6SM OVC025 
     TEMPO 2222/2302 5SM -SN OVC012 
     PROB30 2222/2302 5SM -FZDZ BR 
     FM230200 05005KT 6SM -SN OVC015 
     TEMPO 2302/2304 2SM -SN OVC009 
     FM230400 05005KT 11/2SM -SN OVC010 
     FM230600 04005KT 1SM -SN OVC012 
     TEMPO 2306/2308 21/2SM -SN -PL 
     FM230800 04008KT 1/2SM SN VV005 
     TEMPO 2308/2312 1SM -SN -PL OVC012 
     FM231200 01010KT 3/4SM -SN BKN006 OVC020 
     TEMPO 2312/2318 11/2SM -SN RMK NXT FCST BY 230000Z
       
TAF CYZE 221340Z 2214/2223 34008KT P6SM BKN030 
     TEMPO 2214/2220 BKN020 
     FM222000 26008KT P6SM BKN030 BKN120 
     TEMPO 2220/2223 4SM -SHSN BKN020 OVC030 
     PROB30 2220/2223 2SM -SHSN RMK FCST BASED ON AUTO OBS. NXT FCST BY 222000Z
       
TAF AMD CYQU 221653Z 2216/2301 VRB03KT P6SM VCSH SCT012 OVC100 
     TEMPO 2216/2220 5SM -FZRA BR SCT008 OVC012 
     FM222000 03005KT 5SM -FZRA BR OVC008 
     TEMPO 2220/2223 P6SM -FZRA -PL SCT008 OVC020 
     FM222300 03004KT P6SM SCT008 OVC020 
     TEMPO 2223/2301 5SM BR BKN008 RMK NXT FCST BY 221900Z
       
TAF CYZX 221735Z 2218/2318 15008KT P6SM SCT030 OVC100 
     TEMPO 2218/2220 P6SM -RA BKN020 OVC080 
     FM222000 16008KT P6SM OVC025 
     TEMPO 2220/2224 3SM -RA BR SCT006 OVC012 
     FM230000 15010KT 3SM -RA BR BKN008 OVC015 
     FM230400 18005KT 2SM RA BR SCT003 OVC008 
     BECMG 2304/2306 30010KT 
     FM230700 32015G25KT 6SM -SHRA BR OVC008 
     FM231100 30012G22KT P6SM BKN012 OVC030 
     FM231600 27008KT P6SM BKN030 RMK NXT FCST BY 230000Z
       
TAF CYHZ 221738Z 2218/2318 19010G20KT P6SM FEW015 SCT030 BKN240 
     FM222000 16012KT P6SM FEW006 BKN030 OVC150 
     TEMPO 2220/2223 3SM -RA BR BKN006 OVC030 
     FM222300 16015KT 6SM -RA BR OVC006 
     TEMPO 2223/2305 2SM SHRA BR OVC003 
     BECMG 2300/2302 16018G28KT 
     FM230500 14010G20KT 6SM -RA BR OVC006 
     TEMPO 2305/2308 2SM SHRA BR OVC003 
     FM230800 32020G30KT P6SM -SHRA SCT007 OVC012 
     TEMPO 2308/2310 4SM -SHRA BR OVC007 
     FM231300 30015G25KT P6SM BKN020 
     FM231600 29010G20KT P6SM SCT020 RMK NXT FCST BY 222100Z
       
TAF CYAW 221730Z 2218/2306 22010KT P6SM FEW030 SCT060 OVC250 
     FM221900 17010KT P6SM FEW015 BKN060 OVC200 
     FM222100 17012KT P6SM BKN025 OVC040 
     TEMPO 2221/2223 4SM -SHRA BR SCT008 OVC012 
     FM222300 16017G27KT 4SM -RA BR SCT008 OVC012 
     TEMPO 2223/2302 2SM RA BR OVC008 
     FM230200 16025G35KT 2SM RA BR OVC008 RMK NXT FCST BY 230000Z
       
TAF AMD CYUX 221711Z 2217/2301 14022G32KT P6SM SCT015 BKN025 
     TEMPO 2217/2301 21/2SM -FZDZ -SN BLSN BR BKN015 OVC025 
     BECMG 2222/2224 09015G25KT RMK NXT FCST BY 221900Z
       
TAF CYHM 221740Z 2218/2318 30012G22KT P6SM BKN030 
     BECMG 2220/2222 31010KT 
     BECMG 2301/2303 23005KT 
     FM230800 22005KT P6SM SCT025 BKN110 
     BECMG 2313/2315 24012G22KT 
     FM231700 24015G25KT P6SM BKN050 RMK NXT FCST BY 230000Z
       
TAF AMD CYGV 221808Z 2218/2302 07010KT 5SM BR OVC008 
     TEMPO 2218/2223 P6SM NSW FEW008 SCT080 OVC200 
     FM222300 06005KT P6SM -RA FEW007 OVC080 
     TEMPO 2223/2302 5SM -RA BR OVC007 RMK FCST BASED ON AUTO OBS. NXT FCST BY 222000Z
       
TAF CYHY 221738Z 2218/2306 VRB03KT P6SM FEW003 BKN006 
     TEMPO 2218/2220 BKN003 OVC060 
     FM222000 16005KT P6SM SCT008 
     TEMPO 2220/2306 BKN008 
     BECMG 2221/2223 12008KT RMK NXT FCST BY 230000Z
       
TAF AMD CYOJ 221803Z 2218/2301 VRB03KT 1/4SM FZFG VV002 
     TEMPO 2218/2224 3SM BR OVC006 
     FM230000 10006KT 2SM -SN BR OVC006 
     TEMPO 2300/2301 6SM -SN OVC012 RMK FCST BASED ON AUTO OBS. NXT FCST BY 221900Z
       
TAF CYHI 221638Z 2217/2301 31012KT P6SM IC SCT003 
     TEMPO 2217/2301 1SM IC BR BKN003 RMK NXT FCST BY 221900Z
       
TAF CYGR 221339Z 2214/2302 20010KT P6SM FEW020 
     TEMPO 2214/2219 BKN020 
     FM222200 18012KT P6SM BKN030 OVC160 
     FM230000 16015KT P6SM BKN030 OVC090 
     TEMPO 2300/2302 5SM -RA BR FEW007 OVC030 RMK NXT FCST BY 222000Z
       
TAF CYEV 221239Z 2213/2301 12005KT P6SM FEW040 BKN090 RMK NXT FCST BY 221900Z
       
TAF AMD CYFB 221810Z 2218/2318 14020G30KT 6SM -FZDZ BR SCT008 OVC015 
     TEMPO 2218/2223 1SM -SHSN BLSN VV008 
     FM222300 15015G25KT 2SM -SHSN BKN008 OVC015 
     TEMPO 2223/2306 P6SM -SN SCT015 BKN030 
     PROB30 2223/2306 2SM -FZDZ BR 
     FM230600 18008KT 6SM -SN BKN020 
     FM231200 13010KT 3SM -SN -SG BR SCT006 BKN015 RMK NXT FCST BY 230000Z
       
TAF CYIK 221438Z 2215/2222 13030G40KT P6SM FEW020 SCT200 
     FM221900 14025G35KT P6SM FEW020 SCT080 
     TEMPO 2219/2222 2SM -SN BLSN BKN020 RMK NXT FCST WILL BE ISSUED AT 231445Z
       
TAF AMD CYKA 221731Z 2217/2301 10015KT P6SM FEW008 BKN030 OVC080 
     TEMPO 2217/2301 P6SM -RA RMK NXT FCST BY 221900Z
       
TAF AMD CYAS 221823Z 2218/2222 27015G25KT P6SM FEW008 SCT080 BKN230 
     TEMPO 2218/2222 4SM -SN SCT008 BKN015 OVC080 
     BECMG 2220/2222 24012G22KT RMK NXT FCST WILL BE ISSUED AT 231445Z
       
TAF CYYU 221339Z 2214/2302 25008KT P6SM SCT020 OVC050 
     TEMPO 2214/2220 5SM -SN BKN020 OVC050 
     FM222000 23008KT P6SM BKN030 OVC120 
     TEMPO 2220/2302 P6SM -SN BKN020 OVC030 RMK NXT FCST BY 222000Z
       
TAF AMD CYLW 221809Z 2218/2301 18006KT P6SM -RA OVC015 
     TEMPO 2218/2222 4SM -RA BR OVC008 
     FM222200 17006KT P6SM BKN030 
     TEMPO 2222/2301 4SM -RA BR SCT008 OVC020 RMK FCST BASED ON AUTO OBS. NXT FCST BY 221900Z
       
TAF CYQK 221341Z 2214/2302 22008KT P6SM FEW004 SCT020 OVC240 
     TEMPO 2214/2216 5SM -SN BKN004 OVC240 
     FM221600 20012G22KT P6SM -SN OVC025 
     TEMPO 2216/2302 2SM -SN OVC015 RMK NXT FCST BY 222000Z
       
TAF AMD CYKF 221407Z 2214/2302 32010G20KT P6SM FEW007 SCT015 BKN030 
     TEMPO 2214/2216 P6SM -SHSN SCT007 BKN015 BKN040 
     FM221800 33010G20KT P6SM BKN030 
     TEMPO 2218/2302 BKN020 
     BECMG 2221/2223 32005KT RMK FCST BASED ON AUTO OBS. NXT FCST BY 222000Z
       
TAF AMD CYBB 221613Z 2216/2224 11030G40KT 1/4SM -SN +BLSN VV005 
     TEMPO 2216/2222 2SM BLSN SCT005 BKN010 
     FM222200 11020G30KT 6SM IC SCT020 
     TEMPO 2222/2224 21/2SM -SN BKN020 RMK NXT FCST BY 221900Z
       
TAF AMD CYCO 221409Z 2214/2301 26015KT P6SM IC FEW020 
     TEMPO 2214/2301 6SM -SN BKN020 RMK NXT FCST BY 221900Z
       
TAF CYVP 221738Z 2218/2306 25010G20KT P6SM FEW015 SCT050 
     TEMPO 2220/2223 BKN015 OVC050 
     BECMG 2220/2222 22010KT 
     FM230300 20010KT P6SM FEW020 BKN030 OVC070 RMK NXT FCST BY 230000Z
       
TAF CYGL 221738Z 2218/2318 22012G22KT 2SM -SHSN OVC015 
     TEMPO 2218/2220 6SM -SHSN OVC030 
     FM222000 23012G22KT 3SM -SHSN OVC015 
     TEMPO 2220/2303 6SM -SHSN OVC030 
     PROB30 2220/2303 2SM -SHSN 
     FM230300 20008KT 2SM -SHSN OVC015 
     FM230600 18008KT 1SM -SHSN OVC010 
     FM231000 18012G22KT 3/4SM -SHSN VV008 
     BECMG 2313/2315 25012G22KT RMK NXT FCST BY 230000Z
       
TAF AMD CYVC 221612Z 2216/2301 27010KT P6SM SCT015 BKN060 
     TEMPO 2216/2301 5SM -SN BKN012 RMK NXT FCST BY 221900Z
       
TAF CYQL 221738Z 2218/2306 24030G40KT P6SM FEW060 SCT140 BKN270 
     BECMG 2222/2224 24020G30KT 
     FM230200 20015G25KT P6SM SCT040 
     BECMG 2304/2306 21008KT RMK NXT FCST BY 230000Z
       
TAF CYLL 221738Z 2218/2306 26010KT P6SM SCT040 BKN280 
     TEMPO 2218/2220 P6SM -SN BKN040 BKN280 
     FM222000 13005KT P6SM SCT020 BKN080 
     TEMPO 2220/2306 BKN020 OVC060 RMK NXT FCST BY 230000Z
       
TAF CYXU 221740Z 2218/2318 35010KT P6SM -SHSN OVC030 
     TEMPO 2218/2224 3SM -SHSN OVC020 
     PROB30 2218/2223 1SM -SHSN VV008 
     FM230100 25005KT P6SM BKN030 
     FM230500 24005KT P6SM FEW040 BKN180 
     FM231000 23007KT P6SM SCT020 BKN100 
     BECMG 2312/2314 24012KT 
     BECMG 2316/2318 24012G22KT RMK NXT FCST BY 230000Z
       
TAF CYBX 221343Z 2214/2302 30005KT P6SM FEW020 
     BECMG 2218/2220 08008KT 
     FM222000 08005KT P6SM BKN015 
     TEMPO 2220/2302 BKN025 
     BECMG 2300/2302 08012KT RMK NXT FCST BY 222000Z
       
TAF AMD CYYL 221242Z 2213/2301 24008KT P6SM -SN SCT010 BKN040 
     TEMPO 2213/2217 4SM -SN OVC008 
     BECMG 2215/2217 30012G22KT 
     FM221700 30012G22KT P6SM BKN015 
     TEMPO 2217/2301 BKN025 RMK FCST BASED ON AUTO OBS. NXT FCST BY 221900Z
       
TAF CYZY 221438Z 2215/2303 VRB03KT 2SM -FZRA -SN OVC015 
     TEMPO 2215/2303 6SM -SN BR BKN015 OVC030 RMK FCST BASED ON AUTO OBS. NXT FCST BY 221900Z
       
TAF CYSP 221439Z 2215/2222 VRB03KT P6SM BKN050 OVC110 
     TEMPO 2216/2222 5SM -SN BKN020 OVC050 
     BECMG 2218/2220 25010G20KT RMK NXT FCST BY 222000Z
       
TAF AMD CZMT 221620Z 2216/2302 VRB03KT P6SM VCFG SCT005 SCT020 
     TEMPO 2216/2218 1/2SM -DZ FG BKN005 BKN020 
     FM221800 17005KT P6SM FEW008 SCT020 BKN030 
     TEMPO 2218/2302 5SM -SHRA BR SCT008 BKN020 OVC030 
     PROB30 2218/2219 1SM BR BKN005 RMK NXT FCST BY 221900Z
       
TAF CYMA 221748Z 2218/2306 VRB03KT P6SM SKC 
     FM230200 VRB03KT P6SM SCT040 
     TEMPO 2302/2306 P6SM -SN BKN040 RMK NXT FCST BY 230000Z
       
TAF CYXH 221738Z 2218/2306 27005KT P6SM FEW100 SCT220 
     BECMG 2219/2221 22012KT 
     FM230000 22015G25KT P6SM SKC 
     BECMG 2304/2306 22020G30KT RMK NXT FCST BY 230000Z
       
TAF CYQM 221738Z 2218/2318 19008G18KT P6SM SCT080 BKN180 
     FM221900 14010KT P6SM BKN025 OVC140 
     TEMPO 2219/2301 5SM -SHRA BR OVC015 
     PROB30 2223/2301 2SM SHRA BR OVC006 
     FM230100 14010KT 3SM SHRA BR OVC006 
     TEMPO 2301/2305 6SM -SHRA BR SCT006 OVC012 
     FM230500 32012KT 3SM SHRA BR OVC005 
     TEMPO 2305/2309 6SM -RA BR OVC010 
     BECMG 2306/2308 30012G22KT 
     FM230900 30015G25KT 2SM -SNRA OVC005 
     FM231100 29018G28KT P6SM OVC015 
     FM231400 27012G22KT P6SM SCT020 RMK NXT FCST BY 230000Z
       
TAF AMD CYYY 221811Z 2218/2302 VRB03KT 6SM -RA BR SCT005 OVC025 
     TEMPO 2218/2220 3SM -RASN BR OVC005 
     FM222000 26008KT 2SM -SNRA BR OVC005 
     TEMPO 2220/2223 4SM -SNRA OVC010 
     FM222300 31010G20KT 11/2SM -SN OVC007 
     TEMPO 2223/2301 6SM -SN SCT007 OVC020 
     FM230100 32010G20KT P6SM -SN OVC030 
     TEMPO 2301/2302 3SM -SN OVC020 RMK NXT FCST BY 222000Z
       
TAF CYUL 221741Z 2218/2318 28012KT P6SM BKN015 OVC050 
     TEMPO 2218/2220 SCT015 OVC050 
     FM222000 28015KT P6SM BKN030 
     TEMPO 2220/2304 BKN020 
     FM230400 28010KT P6SM SCT020 
     TEMPO 2304/2306 BKN020 
     BECMG 2314/2316 24012KT RMK NXT FCST BY 222100Z
       
TAF CYMX 221741Z 2218/2318 31012KT P6SM BKN015 
     TEMPO 2218/2302 BKN025 
     BECMG 2300/2302 29005KT 
     FM230200 29005KT P6SM FEW020 
     TEMPO 2302/2305 BKN020 RMK NXT FCST BY 230000Z
       
TAF CYHU 221741Z 2218/2318 27012KT P6SM BKN015 OVC060 
     TEMPO 2218/2220 SCT015 OVC050 
     FM222000 29015KT P6SM BKN030 
     TEMPO 2220/2224 BKN020 
     FM230500 30010KT P6SM SCT030 
     BECMG 2306/2308 26008KT 
     BECMG 2315/2317 23012KT RMK FCST BASED ON AUTO OBS. NXT FCST BY 230000Z
       
TAF CYMJ 221730Z 2218/2306 VRB03KT P6SM FEW030 FEW090 RMK NXT FCST BY 230000Z
       
TAF AMD CYQA 221742Z 2217/2301 32010KT P6SM OVC025 
     TEMPO 2217/2222 5SM -SN OVC020 
     FM222200 32008KT P6SM SCT030 
     TEMPO 2222/2301 P6SM -SN BKN030 RMK FCST BASED ON AUTO OBS. NXT FCST BY 222000Z
       
TAF CYCD 221738Z 2218/2305 15008KT 3SM -RA BR BKN007 OVC020 
     TEMPO 2218/2223 P6SM -RA SCT008 OVC020 
     FM222300 15008KT P6SM BKN025 
     TEMPO 2223/2305 4SM -RA BR OVC015 RMK NXT FCST BY 230000Z
       
TAF AMD CYNA 221802Z 2218/2302 13008KT 3SM BR OVC003 
     TEMPO 2218/2221 6SM BR OVC007 
     FM222100 15010KT 1SM BR OVC003 
     TEMPO 2221/2302 3SM BR FEW003 OVC005 RMK FCST BASED ON AUTO OBS. NXT FCST BY 222000Z
       
TAF CYVQ 221738Z 2218/2306 12005KT P6SM SCT120 RMK NXT FCST BY 230000Z
       
TAF CYQW 221745Z 2218/2306 VRB03KT P6SM SCT015 BKN040 RMK FCST BASED ON AUTO OBS. NXT FCST BY 230000Z
       
TAF CYYB 221340Z 2214/2302 35008KT P6SM OVC025 
     TEMPO 2214/2222 P6SM -SN OVC020 
     BECMG 2216/2218 30008KT 
     FM222200 26008KT P6SM -SN BKN020 OVC140 
     TEMPO 2222/2302 P6SM NSW SCT020 BKN140 RMK NXT FCST BY 222000Z
       
TAF CYOC 221748Z 2218/2302 24010G20KT P6SM -SN SCT020 OVC030 
     TEMPO 2218/2222 5SM -SN BKN020 
     FM222200 26005KT P6SM -SN FEW020 BKN060 RMK NXT FCST BY 230000Z
       
TAF CYOW 221741Z 2218/2318 31015KT P6SM BKN030 
     TEMPO 2218/2302 BKN020 
     BECMG 2221/2223 31012KT 
     FM230200 31010KT P6SM SCT030 
     BECMG 2305/2307 24005KT 
     BECMG 2315/2317 20012KT RMK NXT FCST BY 222100Z
       
TAF AMD CYXP 221511Z 2215/2223 07020G35KT P6SM BKN030 
     TEMPO 2215/2223 P6SM -RA OVC020 RMK NXT FCST BY 221900Z
       
TAF CYPC 221538Z 2216/2224 VRB03KT P6SM SKC 
     BECMG 2220/2222 18008KT RMK NXT FCST BY 221900Z
       
TAF AMD CYPE 221510Z 2215/2301 VRB03KT P6SM SCT015 OVC090 
     TEMPO 2215/2218 5SM -FZRA BR BKN015 OVC060 
     FM221800 VRB03KT 6SM -SN OVC015 
     TEMPO 2218/2221 P6SM -SN SCT015 BKN025 
     FM222100 VRB03KT 6SM -FZRA -PL BR OVC012 
     TEMPO 2221/2301 P6SM -FZRA SCT012 OVC025 RMK NXT FCST BY 221900Z
       
TAF AMD CYYF 221609Z 2216/2301 18012G22KT P6SM -RA SCT020 OVC040 
     TEMPO 2216/2222 5SM -RA BR SCT010 OVC020 
     FM222200 18015KT P6SM -RA SCT025 OVC040 
     TEMPO 2222/2301 5SM -RA BR SCT015 OVC025 RMK NXT FCST BY 221900Z
       
TAF CYWA 221732Z 2218/2306 31012KT P6SM SCT040 
     TEMPO 2218/2223 FEW008 BKN040 
     FM222300 34005KT P6SM FEW040 BKN140 RMK FCST BASED ON AUTO OBS 230300Z-230600Z. NXT FCST BY 230000Z
       
TAF CYPQ 221339Z 2214/2302 30015KT P6SM SCT015 OVC040 
     TEMPO 2214/2216 3SM -SN FEW006 BKN015 OVC040 
     PROB40 2214/2215 1SM -SN 
     FM221600 32012KT P6SM BKN025 
     TEMPO 2216/2222 BKN020 
     FM222200 32007KT P6SM BKN020 
     TEMPO 2222/2302 FEW020 RMK FCST BASED ON AUTO OBS. NXT FCST BY 222000Z
       
TAF AMD CYPL 221535Z 2215/2301 23010KT 3SM -SN BKN009 OVC110 
     TEMPO 2215/2217 P6SM -SN SCT009 OVC100 
     FM221700 24010G20KT P6SM SCT015 BKN110 
     TEMPO 2217/2301 3SM -SN BKN015 OVC110 RMK NXT FCST BY 222000Z
       
TAF AMD CYIO 221718Z 2217/2301 VRB03KT WS010/12040KT P6SM BKN090 OVC100 
     TEMPO 2217/2301 06020G30KT 2SM -SN BLSN VV010 RMK NXT FCST BY 221900Z
       
TAF CYZT 221239Z 2213/2301 12015G25KT P6SM -RA SCT020 BKN040 
     TEMPO 2213/2301 5SM -SHRA BR BKN020 OVC040 RMK NXT FCST BY 221900Z
       
TAF CYPA 221239Z 2213/2301 28005KT P6SM SCT030 BKN080 
     TEMPO 2213/2215 P6SM -SN BKN030 
     FM221500 28005KT P6SM SCT012 SCT040 SCT120 RMK NXT FCST BY 221900Z
       
TAF AMD CYXS 221637Z 2216/2301 02005KT P6SM SCT008 BKN090 
     TEMPO 2216/2218 3SM BR BKN008 
     FM221800 20008KT P6SM BKN100 
     BECMG 2222/2224 33010KT RMK FCST BASED ON AUTO OBS. NXT FCST BY 221900Z
       
TAF CYPR 221239Z 2213/2301 10006KT P6SM -RA SCT008 OVC025 
     TEMPO 2213/2218 3SM -RA BR BKN008 OVC025 
     FM221800 12010KT P6SM -RA OVC025 
     TEMPO 2218/2301 5SM -SHRA BR OVC015 RMK FCST BASED ON AUTO OBS. NXT FCST BY 221900Z
       
TAF CYPX 221750Z 2218/2306 14020G30KT 6SM -SN SCT015 BKN060 
     TEMPO 2218/2306 1SM -SHSN BLSN BKN015 
     BECMG 2221/2223 21018G28KT RMK FCST BASED ON AUTO OBS. NXT FCST BY 230000Z
       
TAF AMD CYVM 221715Z 2217/2301 19010KT WS005/15035KT P6SM FEW005 OVC180 RMK NXT FCST BY 221900Z
       
TAF AMD CYHA 221611Z 2216/2222 19018KT P6SM -SN BKN025 
     TEMPO 2216/2219 21/2SM -SHSN BKN015 
     FM221900 19015KT P6SM SCT030 
     TEMPO 2219/2222 5SM -SN BKN030 RMK NXT FCST WILL BE ISSUED AT 231445Z
       
TAF CYQB 221738Z 2218/2318 24008KT 2SM BR BKN004 OVC008 
     TEMPO 2218/2220 6SM BR SCT008 OVC015 
     BECMG 2220/2221 P6SM NSW OVC025 
     FM222100 28008KT P6SM BKN030 
     TEMPO 2221/2224 BKN020 
     FM230000 30010KT P6SM SCT030 
     TEMPO 2300/2304 BKN030 
     BECMG 2310/2312 26010KT 
     FM231600 26012KT P6SM SCT120 RMK NXT FCST BY 230000Z
       
TAF CYQZ 221138Z 2212/2224 VRB03KT 1/2SM FZFG VV003 
     FM221800 VRB03KT 1SM BR BKN005 
     TEMPO 2218/2220 4SM -RASN BR SCT005 BKN080 
     FM222000 VRB03KT P6SM SCT008 BKN025 
     TEMPO 2220/2224 BKN008 RMK FCST BASED ON AUTO OBS. NXT FCST BY 221900Z
       
TAF CYRT 221750Z 2218/2306 32025G35KT 0SM -SN +BLSN VV012 
     FM222200 31025G35KT 1/4SM -SN +BLSN BKN012 
     TEMPO 2222/2306 3/4SM -SN BLSN BKN025 RMK NXT FCST BY 230000Z
       
TAF CYQF 221738Z 2218/2306 VRB03KT 2SM BR BKN004 OVC100 
     TEMPO 2218/2222 6SM BR BKN008 OVC100 
     FM222200 17006KT P6SM SCT008 
     TEMPO 2222/2303 5SM BR BKN008 
     FM230300 18006KT 6SM HZ BR SKC 
     PROB30 2303/2306 3/4SM BR RMK NXT FCST BY 230000Z
       
TAF CYRL 221341Z 2214/2302 25008KT P6SM -SN FEW006 OVC030 
     TEMPO 2214/2215 4SM -SN OVC006 
     FM221500 23010KT P6SM -SN SCT015 OVC030 
     TEMPO 2215/2302 5SM -SN OVC015 RMK NXT FCST BY 222000Z
       
TAF CYQR 221745Z 2218/2318 VRB03KT P6SM SCT008 BKN080 
     TEMPO 2218/2220 BKN008 
     FM222000 29007KT P6SM SCT030 
     FM230200 14006KT P6SM SCT006 SCT050 
     FM230500 09008KT 6SM BR SCT004 
     TEMPO 2305/2318 4SM BR BKN004 RMK NXT FCST BY 230000Z
       
TAF CYUT 221438Z 2215/2223 15020G30KT 6SM -SN BKN025 
     TEMPO 2215/2223 1SM -SN BLSN BKN012 RMK NXT FCST BY 221900Z
       
TAF CYRB 212339Z 2200/2224 11030G45KT 1/4SM -SN +BLSN VV002 
     FM220900 11045G55KT 0SM SN +BLSN VV000 
     FM222100 11035G45KT 1/4SM -SN +BLSN BKN008 RMK NXT FCST BY 220600Z
       
TAF AMD CYRJ 221704Z 2217/2301 32008G18KT P6SM SCT020 BKN050 
     TEMPO 2217/2301 6SM -SN BKN020 OVC040 
     BECMG 2222/2224 31012KT RMK NXT FCST BY 222000Z
       
TAF CYUY 221738Z 2218/2306 27008KT P6SM -SN BKN025 
     TEMPO 2218/2222 21/2SM -SN BKN020 OVC025 
     PROB30 2218/2222 11/2SM -SN 
     FM222200 24008KT P6SM FEW020 BKN050 
     TEMPO 2222/2302 5SM -SN BKN020 OVC050 
     FM230200 21008KT P6SM SCT030 BKN120 
     TEMPO 2302/2306 P6SM -SN BKN030 OVC120 RMK NXT FCST BY 230000Z
       
TAF CYSY 221538Z 2216/2224 30005KT 2SM -SN OVC005 
     TEMPO 2216/2224 6SM -SN OVC010 
     BECMG 2217/2219 02005KT RMK NXT FCST BY 221900Z
       
TAF CYSJ 221738Z 2218/2306 19012G22KT 3SM -RA BR OVC009 
     TEMPO 2218/2222 6SM -RA BR SCT009 OVC060 
     FM222200 17012G22KT 3SM RA BR OVC006 
     TEMPO 2222/2303 1SM -RA BR OVC003 
     BECMG 2301/2303 VRB03KT 
     FM230300 34010G20KT 3SM -RA BR OVC005 
     TEMPO 2303/2306 6SM -RA BR SCT005 OVC015 
     BECMG 2304/2306 34015G25KT RMK NXT FCST BY 230000Z
       
TAF CYZG 221438Z 2215/2222 18030G40KT P6SM SCT050 BKN120 
     TEMPO 2215/2219 3SM -SN BLSN FEW012 BKN050 
     FM221900 17025G35KT P6SM SCT050 BKN100 
     TEMPO 2219/2222 4SM -SN BLSN FEW012 BKN050 RMK NXT FCST WILL BE ISSUED AT 231445Z
       
TAF AMD CYZP 221252Z 2213/2301 VRB03KT P6SM -RA SCT005 OVC025 
     TEMPO 2213/2218 3/4SM -SHRA BR BKN003 OVC020 
     FM221800 18008KT P6SM SCT015 BKN050 
     TEMPO 2218/2301 3SM -SHRA BR BKN015 OVC050 RMK FCST BASED ON AUTO OBS. NXT FCST BY 221900Z
       
TAF CYZR 221339Z 2214/2302 32012G22KT P6SM BKN040 
     BECMG 2214/2216 32012KT 
     FM222300 29008KT P6SM SCT030 
     BECMG 2300/2302 22005KT RMK FCST BASED ON AUTO OBS. NXT FCST BY 222000Z
       
TAF CYXE 221745Z 2218/2318 28005KT P6SM SCT030 BKN050 
     BECMG 2220/2222 18006KT 
     FM230200 16008KT P6SM SCT008 BKN060 BKN220 
     FM230400 10008KT P6SM SCT006 BKN060 BKN220 
     TEMPO 2304/2318 4SM BR BKN006 RMK NXT FCST BY 230000Z
       
TAF CYAM 221340Z 2214/2302 09005KT 6SM -SHSN SCT015 OVC030 
     TEMPO 2214/2220 11/2SM -SHSNGS SCT006 OVC015 
     PROB40 2214/2220 1/2SM SHSN VV006 
     FM222000 24010KT P6SM BKN030 
     TEMPO 2220/2224 3SM -SHSN BKN020 
     PROB30 2220/2224 21/2SM -SHSN 
     FM230000 24008KT P6SM BKN030 OVC140 RMK NXT FCST BY 222000Z
       
TAF AMD CYKL 221444Z 2214/2302 15010G20KT P6SM -SHSN SCT015 OVC040 
     TEMPO 2214/2216 11/2SM -SHSN OVC015 
     FM221600 23012G22KT P6SM BKN025 
     TEMPO 2216/2302 BKN020 RMK FCST BASED ON AUTO OBS. NXT FCST BY 222000Z
       
TAF CYZV 221738Z 2218/2318 05008KT 3SM -SN SCT006 OVC015 
     TEMPO 2218/2301 11/2SM -SN BR OVC006 
     FM230100 VRB03KT 3SM -SN OVC010 
     TEMPO 2301/2303 2SM -SN 
     FM230300 34006KT 6SM -SN OVC025 
     TEMPO 2303/2305 3SM -SN OVC020 
     FM230500 35012KT P6SM FEW020 SCT040 
     FM231000 34010G20KT P6SM FEW020 
     BECMG 2316/2318 31010G20KT RMK NXT FCST BY 230000Z
       
TAF CYSC 221738Z 2218/2303 26005KT P6SM -RA SCT007 OVC012 
     TEMPO 2218/2220 4SM -RA BR OVC007 
     FM222000 28008KT 5SM -RASN OVC006 
     TEMPO 2220/2222 P6SM -SN OVC010 
     FM222200 28012KT P6SM OVC012 
     TEMPO 2222/2303 3SM -SHSN 
     BECMG 2223/2301 30010G20KT RMK FCST BASED ON AUTO OBS. NXT FCST BY 230000Z
       
TAF CYXL 221341Z 2214/2302 25010KT P6SM FEW009 BKN110 
     TEMPO 2214/2216 5SM -SN BKN009 OVC110 
     FM221600 22010KT P6SM OVC030 
     TEMPO 2216/2302 5SM -SN OVC020 RMK NXT FCST BY 222000Z
       
TAF CYZH 221249Z 2213/2301 11004KT P6SM -SN SCT012 OVC090 
     TEMPO 2213/2219 11/2SM -SHSN VV012 
     FM222000 11005KT P6SM SCT012 OVC025 
     TEMPO 2220/2222 5SM -SN BKN012 
     FM222200 11005KT 5SM -FZRA BR OVC012 
     TEMPO 2222/2224 P6SM -FZRA SCT012 OVC025 RMK FCST BASED ON AUTO OBS. NXT FCST BY 221900Z
       
TAF AMD CYYD 221547Z 2215/2302 12004KT 4SM -FZRA -SN BKN015 OVC030 
     TEMPO 2215/2222 6SM -SN SCT015 OVC030 
     FM222200 15005KT 6SM -SN SCT015 OVC030 
     TEMPO 2222/2302 21/2SM -SN BKN015 OVC030 
     PROB30 2222/2302 2SM -FZRA BR BKN008 RMK NXT FCST BY 221900Z
       
TAF CYPG 221730Z 2218/2306 16008KT P6SM -SN OVC025 
     TEMPO 2218/2220 3SM -SN OVC020 
     FM222000 31005KT P6SM BKN030 
     TEMPO 2220/2224 SCT030 
     FM230000 29005KT P6SM FEW030 RMK NXT FCST BY 230000Z
       
TAF CYAY 221343Z 2214/2302 27012G22KT P6SM FEW025 
     BECMG 2214/2216 27010KT 
     FM230000 17005KT P6SM BKN025 
     TEMPO 2300/2302 BKN020 RMK FCST BASED ON AUTO OBS. NXT FCST BY 222000Z
       
TAF CYSN 221339Z 2214/2302 31015KT P6SM FEW015 OVC040 
     TEMPO 2214/2219 BKN015 
     FM221900 31012KT P6SM BKN030 RMK NXT FCST BY 222000Z
       
TAF CYYT 221738Z 2218/2318 30015G25KT P6SM FEW120 
     BECMG 2218/2220 31010KT 
     FM230600 18005KT P6SM BKN240 
     FM230800 15010KT 6SM BR SCT008 
     FM231200 15015G25KT P6SM OVC120 
     FM231500 15020G30KT P6SM SCT008 OVC100 
     TEMPO 2315/2318 3SM -RA BR BKN008 OVC060 
     BECMG 2316/2318 16030G40KT RMK NXT FCST BY 230000Z
       
TAF CYJT 221738Z 2218/2318 06005KT P6SM BKN025 
     TEMPO 2218/2224 BKN020 
     BECMG 2218/2220 14008KT 
     FM230000 10008KT P6SM BKN025 
     TEMPO 2300/2306 P6SM -RA BKN015 OVC025 
     BECMG 2301/2303 09012G22KT 
     FM230600 12015G25KT P6SM -RA OVC020 
     FM230900 13020G30KT P6SM -RA OVC020 
     BECMG 2312/2314 14030G45KT 
     BECMG 2316/2318 26030G40KT RMK NXT FCST BY 230000Z
       
TAF CYSB 221340Z 2214/2302 32008KT P6SM OVC025 
     TEMPO 2214/2220 P6SM -SN OVC020 
     BECMG 2218/2220 22008KT 
     FM222000 22008KT P6SM -SN BKN020 OVC140 
     TEMPO 2220/2302 P6SM NSW SCT020 BKN140 RMK NXT FCST BY 222000Z
       
TAF CYYN 221745Z 2218/2306 28015KT P6SM BKN080 RMK FCST BASED ON AUTO OBS. NXT FCST BY 230000Z
       
TAF CYQY 221738Z 2218/2306 23012KT P6SM FEW015 
     TEMPO 2218/2222 BKN015 
     FM222200 17010KT P6SM FEW008 SCT060 BKN170 
     TEMPO 2222/2224 BKN008 
     FM230000 16012KT 6SM BR FEW006 BKN060 OVC170 
     TEMPO 2300/2306 2SM -RA BR BKN006 OVC030 
     BECMG 2304/2306 16018KT RMK NXT FCST BY 230000Z
       
TAF AMD CYYH 221810Z 2218/2306 09018G28KT P6SM VCSH SCT015 BKN060 
     TEMPO 2218/2306 1SM -SHSN BLSN SCT008 BKN015 RMK NXT FCST BY 230000Z
       
TAF AMD CYXT 221636Z 2216/2301 02010G20KT 3SM -RA BR SCT005 BKN012 OVC040 
     TEMPO 2216/2219 5SM -FZRA BR FEW005 SCT012 OVC040 
     FM221900 02015KT 6SM -RA BR FEW005 BKN015 OVC030 
     TEMPO 2219/2224 3SM -RASN BR SCT015 OVC025 
     PROB30 2219/2224 2SM -FZRA BR BKN008 
     FM230000 36012G22KT 1SM -SN VV010 
     TEMPO 2300/2301 3SM -RASN BR OVC020 RMK NXT FCST BY 221900Z
       
TAF AMD CYQD 221709Z 2217/2301 27012G22KT P6SM SCT015 BKN070 
     TEMPO 2217/2301 6SM -SN BKN015 RMK NXT FCST BY 221900Z
       
TAF CYTH 221239Z 2213/2301 26006KT P6SM SCT040 BKN080 
     TEMPO 2213/2214 P6SM -SN BKN040 
     FM221400 24008G18KT P6SM -SN SCT012 OVC025 
     TEMPO 2214/2220 4SM -SN OVC012 
     FM222000 28010G20KT P6SM BKN025 
     TEMPO 2220/2301 P6SM -SN BKN015 RMK NXT FCST BY 221900Z
       
TAF CYQT 221341Z 2214/2302 26008KT P6SM SCT025 BKN220 
     TEMPO 2214/2224 BKN025 
     FM230000 23008KT P6SM BKN025 
     TEMPO 2300/2302 5SM -SN OVC020 RMK NXT FCST BY 222000Z
       
TAF CYTS 221339Z 2214/2302 27005KT P6SM -SN OVC025 
     TEMPO 2214/2220 5SM -SN OVC020 
     BECMG 2217/2219 23008KT 
     FM222000 23008KT P6SM BKN030 OVC120 
     TEMPO 2220/2302 P6SM -SN BKN020 OVC030 RMK NXT FCST BY 222000Z
       
TAF CYAZ 221738Z 2218/2301 14015G25KT 1SM SHRA BR OVC003 
     TEMPO 2218/2301 3SM -RA BR OVC006 RMK NXT FCST WILL BE ISSUED AT 231645Z
       
TAF CYKZ 221740Z 2218/2306 33015KT P6SM BKN030 
     TEMPO 2218/2219 5SM -SN BKN020 
     FM222300 31008KT P6SM SCT030 
     BECMG 2303/2305 24005KT RMK NXT FCST BY 230000Z
       
TAF CYTZ 221339Z 2214/2314 30010G20KT P6SM BKN040 
     TEMPO 2214/2215 P6SM -SHRASN OVC020 
     BECMG 2223/2301 30005KT 
     FM230300 29005KT P6SM FEW025 BKN230 
     FM230800 21005KT P6SM BKN025 OVC120 RMK FCST BASED ON AUTO OBS. NXT FCST BY 222000Z
       
TAF CYYZ 221740Z 2218/2324 31015KT P6SM SCT030 
     TEMPO 2218/2222 BKN030 
     FM222200 31010KT P6SM SCT030 
     BECMG 2303/2305 26005KT 
     FM230800 23007KT P6SM SCT020 BKN150 
     BECMG 2314/2316 22010G20KT 
     FM231900 24012G22KT P6SM BKN025 OVC040 RMK NXT FCST BY 222100Z
       
TAF CYTR 221732Z 2218/2318 32012KT P6SM BKN030 
     TEMPO 2218/2220 P6SM -SHSNRA -SHGS BKN020 
     FM230000 32012KT P6SM SCT030 
     BECMG 2300/2302 VRB03KT 
     BECMG 2308/2310 BKN120 
     FM231500 24012G22KT P6SM SCT030 BKN100 RMK NXT FCST BY 230000Z
       
TAF AMD CYRQ 221746Z 2217/2302 32005KT 3SM -RA BR BKN004 OVC015 
     TEMPO 2217/2219 6SM BR SCT015 BKN025 
     FM221900 32010KT P6SM SCT020 BKN040 
     FM222300 32010KT P6SM FEW020 SCT040 RMK FCST BASED ON AUTO OBS. NXT FCST BY 222000Z
       
TAF CYUB 221538Z 2216/2304 12012KT P6SM BKN080 RMK NXT FCST BY 221900Z
       
TAF CYVO 221738Z 2218/2306 30005KT P6SM -SN OVC030 
     TEMPO 2218/2223 21/2SM -SN OVC020 
     PROB30 2218/2223 11/2SM -SN 
     FM222300 26005KT P6SM FEW020 BKN050 
     TEMPO 2223/2303 5SM -SN BKN020 OVC050 
     FM230300 20005KT P6SM SCT030 BKN120 
     TEMPO 2303/2306 P6SM -SN BKN030 OVC120 RMK NXT FCST BY 230000Z
       
TAF CYVR 221738Z 2218/2324 10012KT P6SM -RA SCT012 BKN030 OVC050 
     TEMPO 2218/2224 3SM -SHRA BR SCT006 BKN012 OVC030 
     BECMG 2218/2220 13012KT 
     FM230000 16010KT P6SM -RA SCT015 BKN050 
     TEMPO 2300/2306 5SM -RA BR BKN015 OVC040 
     FM230600 16008KT 4SM -RA BR SCT006 OVC012 
     FM231800 25008KT P6SM -SHRA SCT020 BKN060 RMK NXT FCST BY 222100Z
       
TAF AMD CYYJ 221814Z 2218/2318 12005KT 5SM BR BKN004 OVC010 
     TEMPO 2218/2221 P6SM -RA SCT004 BKN012 OVC030 
     FM222100 15010KT P6SM -RA SCT012 BKN040 
     TEMPO 2221/2303 4SM -RA BR BKN012 OVC030 
     FM230300 19008KT P6SM SCT020 BKN050 
     TEMPO 2303/2312 5SM -RA BR BKN020 OVC050 
     FM231200 16008KT 4SM -RA BR SCT007 OVC015 RMK NXT FCST BY 230000Z
       
TAF CYWK 221343Z 2214/2302 18008KT P6SM SCT008 OVC025 
     TEMPO 2214/2302 3SM -SHSN OVC008 
     BECMG 2214/2216 24010KT RMK NXT FCST BY 222000Z
       
TAF CYQH 221748Z 2218/2306 VRB03KT P6SM -SN OVC015 
     FM222000 VRB03KT 6SM -SN SCT008 OVC025 
     TEMPO 2220/2306 2SM -SN BKN008 OVC025 RMK NXT FCST BY 230000Z
       
TAF CYXZ 221238Z 2213/2224 VRB03KT P6SM FEW040 
     TEMPO 2213/2217 BKN040 
     BECMG 2214/2216 20008KT 
     FM221700 20008KT P6SM BKN025 
     TEMPO 2217/2224 2SM -SHSN BKN020 
     BECMG 2218/2220 24010G20KT RMK NXT FCST BY 222000Z
       
TAF CYZU 221411Z 2214/2223 23005KT P6SM SCT030 OVC050 
     TEMPO 2214/2220 5SM -SN BR BKN030 OVC040 
     FM222000 VRB03KT P6SM BKN060 RMK NXT FCST BY 221900Z
       
TAF CYXY 221748Z 2218/2306 VRB03KT 21/2SM -SN BR BKN005 OVC012 
     TEMPO 2218/2222 6SM BR SCT005 OVC012 
     FM222200 33007KT 5SM -SN BR BKN015 
     TEMPO 2222/2306 P6SM NSW SCT015 RMK NXT FCST BY 230000Z
       
TAF CYVV 221339Z 2214/2224 32008G18KT P6SM BKN020 
     TEMPO 2214/2218 SCT020 
     FM221800 32008KT P6SM BKN030 
     TEMPO 2218/2224 BKN020 RMK NXT FCST BY 222000Z
       
TAF CYWL 221239Z 2213/2301 12010KT WS005/16020KT P6SM FEW090 
     FM221800 14012KT P6SM SCT100 BKN200 RMK NXT FCST BY 221900Z
       
TAF CYQG 221740Z 2218/2318 33012KT P6SM BKN040 
     BECMG 2221/2223 24005KT 
     FM222300 24005KT P6SM SCT040 
     TEMPO 2223/2302 BKN040 
     FM230800 24008KT P6SM FEW030 BKN080 
     BECMG 2312/2314 23012KT 
     BECMG 2316/2318 23010G20KT RMK NXT FCST BY 230000Z
       
TAF CYWG 221745Z 2218/2318 18015KT P6SM -SN BKN040 
     TEMPO 2218/2220 2SM -SHSN OVC020 
     FM222000 20010KT P6SM SCT020 BKN040 
     TEMPO 2220/2224 BKN020 
     FM230000 22005KT P6SM SCT012 
     TEMPO 2300/2310 BKN012 
     FM231000 14005KT P6SM SCT008 BKN050 
     TEMPO 2312/2318 4SM -SN BKN008 OVC030 RMK NXT FCST BY 230000Z
       
TAF CYQI 221738Z 2218/2306 18012KT P6SM -SHRA SCT025 BKN050 OVC080 
     TEMPO 2218/2222 5SM -SHRA BR OVC020 
     FM222200 16012KT 6SM -RA BR SCT006 OVC020 
     TEMPO 2222/2224 3SM -RA BR OVC006 
     FM230000 VRB03KT 3SM SHRA BR OVC006 
     TEMPO 2300/2304 1SM -RA BR OVC002 
     FM230400 33010G20KT 3SM -RA BR OVC005 
     TEMPO 2304/2306 6SM -RA BR SCT005 OVC012 
     BECMG 2305/2306 33020G30KT RMK NXT FCST BY 230000Z
       
TAF CYZF 221738Z 2218/2318 VRB03KT P6SM FEW015 
     FM230400 VRB03KT P6SM -SN BKN015 
     BECMG 2309/2311 10012KT 
     FM231400 10012KT P6SM SCT015 BKN120 RMK NXT FCST BY 230000Z
       
TAF CYQV 221745Z 2218/2306 14008KT P6SM SCT040 BKN080 RMK FCST BASED ON AUTO OBS. NXT FCST BY 230000Z